Observation data for Lake McClellan 2NW on 02/24/2021      Previous  Date  Next       Current Mesonet Observations  Soil Data  Daily Summary Page  Observations in Plain Language
KMC5 240600Z 28024KT 12/M03 A2976 RMK A01 T01221031  RH  034%=      5-min Rain = 0
KMC5 240601Z 28023KT 12/M03 A2976 RMK A01 T01231031  RH  034%=      5-min Rain = 0
KMC5 240602Z 29022G27KT 12/M03 A2977 RMK A01 T01221032  RH  034%=      5-min Rain = 0
KMC5 240603Z 29023KT 12/M03 A2977 RMK A01 T01221031  RH  034%=      5-min Rain = 0
KMC5 240604Z 29021KT 12/M03 A2977 RMK A01 T01221032  RH  034%=      5-min Rain = 0
KMC5 240605Z 29021KT 12/M03 A2977 RMK A01 T01211031  RH  034%=      5-min Rain = 0
KMC5 240606Z 29021KT 12/M03 A2977 RMK A01 T01191031  RH  035%=      5-min Rain = 0
KMC5 240607Z 30022KT 12/M03 A2977 RMK A01 T01181031  RH  035%=      5-min Rain = 0
KMC5 240608Z 29021KT 12/M03 A2977 RMK A01 T01161030  RH  036%=      5-min Rain = 0
KMC5 240609Z 29024KT 12/M03 A2977 RMK A01 T01151030  RH  036%=      5-min Rain = 0
KMC5 240610Z 29021G28KT 12/M03 A2977 RMK A01 T01151029  RH  036%=      5-min Rain = 0
KMC5 240611Z 29021G26KT 11/M03 A2977 RMK A01 T01141029  RH  037%=      5-min Rain = 0
KMC5 240612Z 30021KT 11/M03 A2978 RMK A01 T01131028  RH  037%=      5-min Rain = 0
KMC5 240613Z 30021KT 11/M03 A2978 RMK A01 T01121028  RH  038%=      5-min Rain = 0
KMC5 240614Z 30024KT 11/M03 A2978 RMK A01 T01121028  RH  038%=      5-min Rain = 0
KMC5 240615Z 30024KT 11/M03 A2978 RMK A01 T01121029  RH  037%=      5-min Rain = 0
KMC5 240616Z 30023G28KT 11/M03 A2978 RMK A01 T01121029  RH  037%=      5-min Rain = 0
KMC5 240617Z 30022G28KT 11/M03 A2978 RMK A01 T01121029  RH  037%=      5-min Rain = 0
KMC5 240618Z 30023G28KT 11/M03 A2978 RMK A01 T01121030  RH  037%=      5-min Rain = 0
KMC5 240619Z 30025KT 11/M03 A2978 RMK A01 T01111031  RH  037%=      5-min Rain = 0
KMC5 240620Z 31023KT 11/M03 A2978 RMK A01 T01111032  RH  036%=      5-min Rain = 0
KMC5 240621Z 31025G30KT 11/M03 A2978 RMK A01 T01111033  RH  036%=      5-min Rain = 0
KMC5 240622Z 31022G27KT 11/M03 A2979 RMK A01 T01111034  RH  036%=      5-min Rain = 0
KMC5 240623Z 32020KT 11/M03 A2979 RMK A01 T01111034  RH  036%=      5-min Rain = 0
KMC5 240624Z 32025G30KT 11/M03 A2979 RMK A01 T01091034  RH  037%=      5-min Rain = 0
KMC5 240625Z 32025KT 11/M04 A2979 RMK A01 T01081035  RH  036%=      5-min Rain = 0
KMC5 240626Z 32025KT 11/M04 A2979 RMK A01 T01071035  RH  037%=      5-min Rain = 0
KMC5 240627Z 33023G28KT 11/M04 A2979 RMK A01 T01051035  RH  037%=      5-min Rain = 0
KMC5 240628Z 33024KT 10/M04 A2979 RMK A01 T01041036  RH  037%=      5-min Rain = 0
KMC5 240629Z 33028G33KT 10/M04 A2979 RMK A01 T01031036  RH  037%=      5-min Rain = 0
KMC5 240630Z 33024G30KT 10/M04 A2979 RMK A01 T01031036  RH  037%=      5-min Rain = 0
KMC5 240631Z 33024KT 10/M04 A2979 RMK A01 T01021036  RH  038%=      5-min Rain = 0
KMC5 240632Z 33027G32KT 10/M04 A2979 RMK A01 T01001035  RH  038%=      5-min Rain = 0
KMC5 240633Z 34028G35KT 10/M04 A2979 RMK A01 T00991036  RH  038%=      5-min Rain = 0
KMC5 240634Z 34030G35KT 10/M04 A2979 RMK A01 T01001037  RH  038%=      5-min Rain = 0
KMC5 240635Z 34029KT 10/M04 A2979 RMK A01 T01001037  RH  038%=      5-min Rain = 0
KMC5 240636Z 34025G30KT 10/M04 A298 RMK A01 T01001036  RH  038%=      5-min Rain = 0
KMC5 240637Z 34028KT 10/M04 A2979 RMK A01 T00981036  RH  039%=      5-min Rain = 0
KMC5 240638Z 34024G29KT 10/M04 A298 RMK A01 T00971036  RH  039%=      5-min Rain = 0
KMC5 240639Z 35029KT 10/M04 A2979 RMK A01 T00961035  RH  039%=      5-min Rain = 0
KMC5 240640Z 35030G35KT 10/M04 A2979 RMK A01 T00961036  RH  039%=      5-min Rain = 0
KMC5 240641Z 35030KT 10/M04 A298 RMK A01 T00961035  RH  039%=      5-min Rain = 0
KMC5 240642Z 35032G41KT 10/M04 A298 RMK A01 T00961035  RH  040%=      5-min Rain = 0
KMC5 240643Z 35030G35KT 10/M04 A298 RMK A01 T00961035  RH  040%=      5-min Rain = 0
KMC5 240644Z 35032G37KT 10/M04 A298 RMK A01 T00961035  RH  040%=      5-min Rain = 0
KMC5 240645Z 35029KT 10/M04 A298 RMK A01 T00951035  RH  040%=      5-min Rain = 0
KMC5 240646Z 35030G37KT 10/M04 A298 RMK A01 T00951035  RH  040%=      5-min Rain = 0
KMC5 240647Z 35031G36KT 09/M04 A298 RMK A01 T00941035  RH  040%=      5-min Rain = 0
KMC5 240648Z 36033KT 09/M04 A2981 RMK A01 T00941035  RH  040%=      5-min Rain = 0
KMC5 240649Z 35029G36KT 09/M04 A2981 RMK A01 T00941035  RH  040%=      5-min Rain = 0
KMC5 240650Z 36032G39KT 09/M04 A2981 RMK A01 T00931035  RH  040%=      5-min Rain = 0
KMC5 240651Z 35033G39KT 09/M04 A2981 RMK A01 T00931036  RH  040%=      5-min Rain = 0
KMC5 240652Z 35035G40KT 09/M04 A2981 RMK A01 T00931036  RH  040%=      5-min Rain = 0
KMC5 240653Z 36030G35KT 09/M04 A2981 RMK A01 T00931035  RH  040%=      5-min Rain = 0
KMC5 240654Z 35030G36KT 09/M04 A2981 RMK A01 T00921035  RH  040%=      5-min Rain = 0
KMC5 240655Z 36030G36KT 09/M04 A2982 RMK A01 T00911035  RH  041%=      5-min Rain = 0
KMC5 240656Z 36030G36KT 09/M04 A2982 RMK A01 T00911035  RH  041%=      5-min Rain = 0
KMC5 240657Z 36028G34KT 09/M04 A2982 RMK A01 T00901035  RH  041%=      5-min Rain = 0
KMC5 240658Z 36031KT 09/M04 A2982 RMK A01 T00901035  RH  041%=      5-min Rain = 0
KMC5 240659Z 36029G35KT 09/M04 A2983 RMK A01 T00901035  RH  041%=      5-min Rain = 0
KMC5 240700Z 36027KT 09/M04 A2983 RMK A01 T00891035  RH  041%=      5-min Rain = 0
KMC5 240701Z 36031KT 09/M04 A2983 RMK A01 T00881035  RH  042%=      5-min Rain = 0
KMC5 240702Z 36029G35KT 09/M04 A2983 RMK A01 T00881036  RH  042%=      5-min Rain = 0
KMC5 240703Z 35028KT 09/M04 A2983 RMK A01 T00881035  RH  042%=      5-min Rain = 0
KMC5 240704Z 35027G32KT 09/M04 A2983 RMK A01 T00871035  RH  042%=      5-min Rain = 0
KMC5 240705Z 35028KT 09/M04 A2983 RMK A01 T00871035  RH  042%=      5-min Rain = 0
KMC5 240706Z 36028G33KT 09/M04 A2983 RMK A01 T00861035  RH  042%=      5-min Rain = 0
KMC5 240707Z 36028KT 09/M04 A2984 RMK A01 T00861035  RH  042%=      5-min Rain = 0
KMC5 240708Z 36024G29KT 09/M03 A2984 RMK A01 T00861034  RH  042%=      5-min Rain = 0
KMC5 240709Z 35028KT 09/M03 A2984 RMK A01 T00851034  RH  043%=      5-min Rain = 0
KMC5 240710Z 36027G34KT 09/M04 A2984 RMK A01 T00851035  RH  043%=      5-min Rain = 0
KMC5 240711Z 36027G33KT 09/M04 A2984 RMK A01 T00861035  RH  043%=      5-min Rain = 0
KMC5 240712Z 36030G35KT 09/M04 A2984 RMK A01 T00851035  RH  043%=      5-min Rain = 0
KMC5 240713Z 35027G32KT 09/M04 A2984 RMK A01 T00851035  RH  043%=      5-min Rain = 0
KMC5 240714Z 35027G36KT 09/M04 A2984 RMK A01 T00851035  RH  042%=      5-min Rain = 0
KMC5 240715Z 36025G31KT 09/M03 A2985 RMK A01 T00851034  RH  043%=      5-min Rain = 0
KMC5 240716Z 36028KT 09/M04 A2985 RMK A01 T00851035  RH  043%=      5-min Rain = 0
KMC5 240717Z 36030KT 09/M04 A2985 RMK A01 T00851035  RH  043%=      5-min Rain = 0
KMC5 240718Z 36026G31KT 09/M04 A2985 RMK A01 T00851036  RH  042%=      5-min Rain = 0
KMC5 240719Z 35027G33KT 09/M04 A2985 RMK A01 T00851036  RH  042%=      5-min Rain = 0
KMC5 240720Z 36030G35KT 09/M04 A2985 RMK A01 T00851036  RH  042%=      5-min Rain = 0
KMC5 240721Z 00028KT 09/M04 A2985 RMK A01 T00851036  RH  042%=      5-min Rain = 0
KMC5 240722Z 36023G28KT 09/M04 A2986 RMK A01 T00851036  RH  042%=      5-min Rain = 0
KMC5 240723Z 00026KT 08/M04 A2986 RMK A01 T00831035  RH  043%=      5-min Rain = 0
KMC5 240724Z 36026G31KT 08/M04 A2986 RMK A01 T00831036  RH  043%=      5-min Rain = 0
KMC5 240725Z 00025G30KT 08/M04 A2986 RMK A01 T00831036  RH  043%=      5-min Rain = 0
KMC5 240726Z 00024G30KT 08/M04 A2987 RMK A01 T00831036  RH  043%=      5-min Rain = 0
KMC5 240727Z 00024G31KT 08/M04 A2987 RMK A01 T00831036  RH  043%=      5-min Rain = 0
KMC5 240728Z 00025G30KT 08/M04 A2987 RMK A01 T00831036  RH  043%=      5-min Rain = 0
KMC5 240729Z 36022G27KT 08/M04 A2987 RMK A01 T00831036  RH  043%=      5-min Rain = 0
KMC5 240730Z 00021KT 08/M04 A2988 RMK A01 T00821036  RH  043%=      5-min Rain = 0
KMC5 240731Z 00022G27KT 08/M04 A2988 RMK A01 T00811036  RH  043%=      5-min Rain = 0
KMC5 240732Z 00023G28KT 08/M04 A2988 RMK A01 T00811037  RH  043%=      5-min Rain = 0
KMC5 240733Z 00023KT 08/M04 A2988 RMK A01 T00811037  RH  043%=      5-min Rain = 0
KMC5 240734Z 00023KT 08/M04 A2988 RMK A01 T00811037  RH  043%=      5-min Rain = 0
KMC5 240735Z 00023KT 08/M04 A2988 RMK A01 T00801037  RH  043%=      5-min Rain = 0
KMC5 240736Z 36026KT 08/M04 A2989 RMK A01 T00801038  RH  043%=      5-min Rain = 0
KMC5 240737Z 00021KT 08/M04 A2989 RMK A01 T00811037  RH  043%=      5-min Rain = 0
KMC5 240738Z 00021G30KT 08/M04 A2989 RMK A01 T00801038  RH  043%=      5-min Rain = 0
KMC5 240739Z 00023KT 08/M04 A2989 RMK A01 T00791038  RH  043%=      5-min Rain = 0
KMC5 240740Z 00023G29KT 08/M04 A2989 RMK A01 T00791038  RH  043%=      5-min Rain = 0
KMC5 240741Z 36026KT 08/M04 A2989 RMK A01 T00801039  RH  043%=      5-min Rain = 0
KMC5 240742Z 00022KT 08/M04 A2989 RMK A01 T00801038  RH  043%=      5-min Rain = 0
KMC5 240743Z 00024KT 08/M04 A2989 RMK A01 T00791038  RH  043%=      5-min Rain = 0
KMC5 240744Z 00025KT 08/M04 A2989 RMK A01 T00791039  RH  043%=      5-min Rain = 0
KMC5 240745Z 36027G33KT 08/M04 A2989 RMK A01 T00791039  RH  043%=      5-min Rain = 0
KMC5 240746Z 36024KT 08/M04 A2989 RMK A01 T00801040  RH  043%=      5-min Rain = 0
KMC5 240747Z 00027G32KT 08/M04 A2989 RMK A01 T00801039  RH  043%=      5-min Rain = 0
KMC5 240748Z 36022G27KT 08/M04 A299 RMK A01 T00791039  RH  043%=      5-min Rain = 0
KMC5 240749Z 00022KT 08/M04 A299 RMK A01 T00791039  RH  043%=      5-min Rain = 0
KMC5 240750Z 00023KT 08/M04 A299 RMK A01 T00771039  RH  043%=      5-min Rain = 0
KMC5 240751Z 00025KT 08/M04 A299 RMK A01 T00781039  RH  044%=      5-min Rain = 0
KMC5 240752Z 36022KT 08/M04 A299 RMK A01 T00771039  RH  044%=      5-min Rain = 0
KMC5 240753Z 36022KT 08/M04 A299 RMK A01 T00761039  RH  044%=      5-min Rain = 0
KMC5 240754Z 00023KT 08/M04 A299 RMK A01 T00751039  RH  044%=      5-min Rain = 0
KMC5 240755Z 36024G29KT 08/M04 A299 RMK A01 T00751039  RH  044%=      5-min Rain = 0
KMC5 240756Z 35021KT 08/M04 A299 RMK A01 T00761039  RH  044%=      5-min Rain = 0
KMC5 240757Z 36025KT 08/M04 A299 RMK A01 T00751039  RH  044%=      5-min Rain = 0
KMC5 240758Z 35026KT 08/M04 A299 RMK A01 T00751040  RH  044%=      5-min Rain = 0
KMC5 240759Z 00024G29KT 08/M04 A299 RMK A01 T00751041  RH  044%=      5-min Rain = 0
KMC5 240800Z 36024G29KT 08/M04 A299 RMK A01 T00761041  RH  043%=      5-min Rain = 0
KMC5 240801Z 36025KT 08/M04 A299 RMK A01 T00751041  RH  043%=      5-min Rain = 0
KMC5 240802Z 36025KT 08/M04 A299 RMK A01 T00751041  RH  044%=      5-min Rain = 0
KMC5 240803Z 00024KT 08/M04 A299 RMK A01 T00751041  RH  044%=      5-min Rain = 0
KMC5 240804Z 36024KT 08/M04 A299 RMK A01 T00751041  RH  043%=      5-min Rain = 0
KMC5 240805Z 36020KT 08/M04 A2991 RMK A01 T00751041  RH  044%=      5-min Rain = 0
KMC5 240806Z 36022KT 07/M04 A2991 RMK A01 T00731041  RH  044%=      5-min Rain = 0
KMC5 240807Z 36025G30KT 07/M04 A2991 RMK A01 T00721041  RH  044%=      5-min Rain = 0
KMC5 240808Z 36022G28KT 07/M04 A2991 RMK A01 T00731041  RH  044%=      5-min Rain = 0
KMC5 240809Z 36025KT 07/M04 A2991 RMK A01 T00731042  RH  044%=      5-min Rain = 0
KMC5 240810Z 35022G27KT 07/M04 A2991 RMK A01 T00731042  RH  044%=      5-min Rain = 0
KMC5 240811Z 36023KT 07/M04 A2991 RMK A01 T00731042  RH  044%=      5-min Rain = 0
KMC5 240812Z 36023G28KT 07/M04 A2991 RMK A01 T00731042  RH  044%=      5-min Rain = 0
KMC5 240813Z 36026G32KT 07/M04 A2991 RMK A01 T00731042  RH  044%=      5-min Rain = 0
KMC5 240814Z 35026KT 07/M04 A2991 RMK A01 T00731043  RH  044%=      5-min Rain = 0
KMC5 240815Z 35023KT 07/M04 A2991 RMK A01 T00731042  RH  044%=      5-min Rain = 0
KMC5 240816Z 36022KT 07/M04 A2991 RMK A01 T00721042  RH  044%=      5-min Rain = 0
KMC5 240817Z 36023KT 07/M04 A2991 RMK A01 T00711042  RH  044%=      5-min Rain = 0
KMC5 240818Z 35024G29KT 07/M04 A2991 RMK A01 T00711042  RH  044%=      5-min Rain = 0
KMC5 240819Z 36026KT 07/M04 A2991 RMK A01 T00721043  RH  044%=      5-min Rain = 0
KMC5 240820Z 35026G31KT 07/M04 A2991 RMK A01 T00721043  RH  044%=      5-min Rain = 0
KMC5 240821Z 36025KT 07/M04 A2991 RMK A01 T00721043  RH  044%=      5-min Rain = 0
KMC5 240822Z 36023G29KT 07/M04 A2991 RMK A01 T00721042  RH  044%=      5-min Rain = 0
KMC5 240823Z 35023G29KT 07/M04 A2991 RMK A01 T00711043  RH  044%=      5-min Rain = 0
KMC5 240824Z 36022G27KT 07/M04 A2991 RMK A01 T00711042  RH  045%=      5-min Rain = 0
KMC5 240825Z 35022KT 07/M04 A2991 RMK A01 T00701042  RH  045%=      5-min Rain = 0
KMC5 240826Z 35023G28KT 07/M04 A2991 RMK A01 T00691042  RH  045%=      5-min Rain = 0
KMC5 240827Z 35023KT 07/M04 A2991 RMK A01 T00691042  RH  045%=      5-min Rain = 0
KMC5 240828Z 35023G28KT 07/M04 A2991 RMK A01 T00691042  RH  045%=      5-min Rain = 0
KMC5 240829Z 35022G27KT 07/M04 A2991 RMK A01 T00691042  RH  045%=      5-min Rain = 0
KMC5 240830Z 35024G30KT 07/M04 A2991 RMK A01 T00691043  RH  045%=      5-min Rain = 0
KMC5 240831Z 35025G30KT 07/M04 A2991 RMK A01 T00691043  RH  045%=      5-min Rain = 0
KMC5 240832Z 35024KT 07/M04 A2991 RMK A01 T00701043  RH  044%=      5-min Rain = 0
KMC5 240833Z 35023KT 07/M04 A2991 RMK A01 T00701043  RH  045%=      5-min Rain = 0
KMC5 240834Z 36024G29KT 07/M04 A2991 RMK A01 T00691043  RH  045%=      5-min Rain = 0
KMC5 240835Z 36024G29KT 07/M04 A2992 RMK A01 T00681043  RH  045%=      5-min Rain = 0
KMC5 240836Z 35023KT 07/M04 A2992 RMK A01 T00691043  RH  045%=      5-min Rain = 0
KMC5 240837Z 36022KT 07/M04 A2992 RMK A01 T00691043  RH  045%=      5-min Rain = 0
KMC5 240838Z 36021KT 07/M04 A2992 RMK A01 T00681042  RH  045%=      5-min Rain = 0
KMC5 240839Z 36024G29KT 07/M04 A2992 RMK A01 T00681042  RH  045%=      5-min Rain = 0
KMC5 240840Z 36025KT 07/M04 A2992 RMK A01 T00681043  RH  045%=      5-min Rain = 0
KMC5 240841Z 35022G27KT 07/M04 A2992 RMK A01 T00691043  RH  045%=      5-min Rain = 0
KMC5 240842Z 35023KT 07/M04 A2992 RMK A01 T00691042  RH  045%=      5-min Rain = 0
KMC5 240843Z 36024KT 07/M04 A2992 RMK A01 T00681042  RH  045%=      5-min Rain = 0
KMC5 240844Z 36023G29KT 07/M04 A2992 RMK A01 T00671043  RH  045%=      5-min Rain = 0
KMC5 240845Z 36022G28KT 07/M04 A2992 RMK A01 T00681043  RH  045%=      5-min Rain = 0
KMC5 240846Z 36024KT 07/M04 A2992 RMK A01 T00671042  RH  045%=      5-min Rain = 0
KMC5 240847Z 36023G31KT 07/M04 A2992 RMK A01 T00671042  RH  045%=      5-min Rain = 0
KMC5 240848Z 35023KT 07/M04 A2992 RMK A01 T00671042  RH  046%=      5-min Rain = 0
KMC5 240849Z 36024KT 07/M04 A2992 RMK A01 T00671042  RH  046%=      5-min Rain = 0
KMC5 240850Z 36024KT 07/M04 A2992 RMK A01 T00671042  RH  046%=      5-min Rain = 0
KMC5 240851Z 36023KT 07/M04 A2992 RMK A01 T00671042  RH  046%=      5-min Rain = 0
KMC5 240852Z 36023KT 07/M04 A2992 RMK A01 T00671042  RH  046%=      5-min Rain = 0
KMC5 240853Z 01025G30KT 07/M04 A2992 RMK A01 T00671042  RH  046%=      5-min Rain = 0
KMC5 240854Z 36024KT 07/M04 A2992 RMK A01 T00681042  RH  045%=      5-min Rain = 0
KMC5 240855Z 35023G28KT 07/M04 A2992 RMK A01 T00681042  RH  045%=      5-min Rain = 0
KMC5 240856Z 36023KT 07/M04 A2993 RMK A01 T00681042  RH  045%=      5-min Rain = 0
KMC5 240857Z 36024KT 07/M04 A2993 RMK A01 T00671042  RH  046%=      5-min Rain = 0
KMC5 240858Z 36023KT 07/M04 A2993 RMK A01 T00671042  RH  045%=      5-min Rain = 0
KMC5 240859Z 36022KT 07/M04 A2993 RMK A01 T00671042  RH  046%=      5-min Rain = 0
KMC5 240900Z 35022KT 07/M04 A2993 RMK A01 T00671042  RH  046%=      5-min Rain = 0
KMC5 240901Z 35022KT 07/M04 A2993 RMK A01 T00661042  RH  046%=      5-min Rain = 0
KMC5 240902Z 35020G25KT 07/M04 A2994 RMK A01 T00661042  RH  046%=      5-min Rain = 0
KMC5 240903Z 36019KT 07/M04 A2994 RMK A01 T00651041  RH  046%=      5-min Rain = 0
KMC5 240904Z 36021G26KT 06/M04 A2994 RMK A01 T00641042  RH  047%=      5-min Rain = 0
KMC5 240905Z 36019G24KT 06/M04 A2994 RMK A01 T00641042  RH  047%=      5-min Rain = 0
KMC5 240906Z 35022G28KT 06/M04 A2994 RMK A01 T00641041  RH  047%=      5-min Rain = 0
KMC5 240907Z 35020G25KT 06/M04 A2994 RMK A01 T00641041  RH  047%=      5-min Rain = 0
KMC5 240908Z 35020KT 07/M04 A2995 RMK A01 T00651041  RH  047%=      5-min Rain = 0
KMC5 240909Z 35019KT 06/M04 A2995 RMK A01 T00641041  RH  047%=      5-min Rain = 0
KMC5 240910Z 35020KT 06/M04 A2995 RMK A01 T00631041  RH  047%=      5-min Rain = 0
KMC5 240911Z 35021KT 06/M04 A2995 RMK A01 T00631041  RH  047%=      5-min Rain = 0
KMC5 240912Z 35019KT 06/M04 A2995 RMK A01 T00631041  RH  047%=      5-min Rain = 0
KMC5 240913Z 35020G25KT 06/M04 A2995 RMK A01 T00631041  RH  047%=      5-min Rain = 0
KMC5 240914Z 35020KT 06/M04 A2995 RMK A01 T00631041  RH  047%=      5-min Rain = 0
KMC5 240915Z 35020G25KT 06/M04 A2995 RMK A01 T00631040  RH  048%=      5-min Rain = 0
KMC5 240916Z 35021KT 06/M04 A2995 RMK A01 T00621040  RH  048%=      5-min Rain = 0
KMC5 240917Z 35020KT 06/M04 A2995 RMK A01 T00621040  RH  048%=      5-min Rain = 0
KMC5 240918Z 35021KT 06/M04 A2995 RMK A01 T00621040  RH  048%=      5-min Rain = 0
KMC5 240919Z 35020KT 06/M04 A2995 RMK A01 T00621040  RH  048%=      5-min Rain = 0
KMC5 240920Z 35020KT 06/M04 A2995 RMK A01 T00621040  RH  048%=      5-min Rain = 0
KMC5 240921Z 36020KT 06/M04 A2995 RMK A01 T00621040  RH  048%=      5-min Rain = 0
KMC5 240922Z 35018KT 06/M04 A2995 RMK A01 T00611040  RH  048%=      5-min Rain = 0
KMC5 240923Z 35019KT 06/M04 A2995 RMK A01 T00611039  RH  049%=      5-min Rain = 0
KMC5 240924Z 35016KT 06/M04 A2995 RMK A01 T00601039  RH  049%=      5-min Rain = 0
KMC5 240925Z 36017G22KT 06/M04 A2996 RMK A01 T00591039  RH  049%=      5-min Rain = 0
KMC5 240926Z 00017KT 06/M04 A2996 RMK A01 T00581039  RH  050%=      5-min Rain = 0
KMC5 240927Z 35020KT 06/M04 A2995 RMK A01 T00581039  RH  050%=      5-min Rain = 0
KMC5 240928Z 36019KT 06/M04 A2996 RMK A01 T00581039  RH  050%=      5-min Rain = 0
KMC5 240929Z 36019G25KT 06/M04 A2996 RMK A01 T00591039  RH  050%=      5-min Rain = 0
KMC5 240930Z 36017KT 06/M04 A2996 RMK A01 T00591039  RH  050%=      5-min Rain = 0
KMC5 240931Z 35016KT 06/M04 A2996 RMK A01 T00581038  RH  050%=      5-min Rain = 0
KMC5 240932Z 36018KT 06/M04 A2996 RMK A01 T00571038  RH  050%=      5-min Rain = 0
KMC5 240933Z 36016KT 06/M04 A2996 RMK A01 T00561038  RH  051%=      5-min Rain = 0
KMC5 240934Z 35017KT 06/M04 A2996 RMK A01 T00561038  RH  051%=      5-min Rain = 0
KMC5 240935Z 35017KT 06/M04 A2996 RMK A01 T00561038  RH  051%=      5-min Rain = 0
KMC5 240936Z 35018KT 06/M04 A2997 RMK A01 T00561038  RH  051%=      5-min Rain = 0
KMC5 240937Z 35017KT 06/M04 A2997 RMK A01 T00561038  RH  051%=      5-min Rain = 0
KMC5 240938Z 35017KT 06/M04 A2997 RMK A01 T00551038  RH  051%=      5-min Rain = 0
KMC5 240939Z 35016KT 06/M04 A2997 RMK A01 T00551038  RH  051%=      5-min Rain = 0
KMC5 240940Z 35017KT 05/M04 A2997 RMK A01 T00541037  RH  052%=      5-min Rain = 0
KMC5 240941Z 35016G21KT 05/M04 A2997 RMK A01 T00541037  RH  052%=      5-min Rain = 0
KMC5 240942Z 35018KT 05/M04 A2997 RMK A01 T00541037  RH  052%=      5-min Rain = 0
KMC5 240943Z 35017KT 06/M04 A2997 RMK A01 T00551037  RH  052%=      5-min Rain = 0
KMC5 240944Z 35015G20KT 06/M04 A2997 RMK A01 T00551036  RH  052%=      5-min Rain = 0
KMC5 240945Z 35017G24KT 05/M04 A2998 RMK A01 T00541036  RH  052%=      5-min Rain = 0
KMC5 240946Z 35019KT 05/M04 A2997 RMK A01 T00531037  RH  052%=      5-min Rain = 0
KMC5 240947Z 35019KT 05/M04 A2998 RMK A01 T00541036  RH  052%=      5-min Rain = 0
KMC5 240948Z 35016KT 06/M04 A2998 RMK A01 T00551036  RH  052%=      5-min Rain = 0
KMC5 240949Z 35017KT 05/M04 A2998 RMK A01 T00541036  RH  052%=      5-min Rain = 0
KMC5 240950Z 35018KT 05/M04 A2997 RMK A01 T00531037  RH  052%=      5-min Rain = 0
KMC5 240951Z 35018KT 05/M04 A2997 RMK A01 T00531036  RH  053%=      5-min Rain = 0
KMC5 240952Z 35019KT 05/M04 A2997 RMK A01 T00521036  RH  053%=      5-min Rain = 0
KMC5 240953Z 35019KT 05/M04 A2997 RMK A01 T00521036  RH  053%=      5-min Rain = 0
KMC5 240954Z 35019G25KT 05/M04 A2997 RMK A01 T00521036  RH  053%=      5-min Rain = 0
KMC5 240955Z 35020KT 05/M04 A2997 RMK A01 T00521036  RH  053%=      5-min Rain = 0
KMC5 240956Z 35020KT 05/M04 A2997 RMK A01 T00521036  RH  053%=      5-min Rain = 0
KMC5 240957Z 34016KT 05/M04 A2998 RMK A01 T00521036  RH  053%=      5-min Rain = 0
KMC5 240958Z 34018KT 05/M04 A2998 RMK A01 T00511036  RH  053%=      5-min Rain = 0
KMC5 240959Z 34017KT 05/M04 A2998 RMK A01 T00511036  RH  054%=      5-min Rain = 0
KMC5 241000Z 34015KT 05/M04 A2998 RMK A01 T00501035  RH  054%=      5-min Rain = 0
KMC5 241001Z 33016KT 05/M04 A2998 RMK A01 T00481036  RH  055%=      5-min Rain = 0
KMC5 241002Z 34016KT 05/M04 A2998 RMK A01 T00481035  RH  055%=      5-min Rain = 0
KMC5 241003Z 34017KT 05/M04 A2998 RMK A01 T00471035  RH  055%=      5-min Rain = 0
KMC5 241004Z 34016KT 05/M04 A2998 RMK A01 T00461035  RH  056%=      5-min Rain = 0
KMC5 241005Z 34017KT 05/M04 A2998 RMK A01 T00451035  RH  056%=      5-min Rain = 0
KMC5 241006Z 34019KT 05/M04 A2998 RMK A01 T00451035  RH  056%=      5-min Rain = 0
KMC5 241007Z 34018KT 05/M04 A2998 RMK A01 T00451035  RH  056%=      5-min Rain = 0
KMC5 241008Z 34018KT 05/M04 A2998 RMK A01 T00461035  RH  056%=      5-min Rain = 0
KMC5 241009Z 34017KT 05/M04 A2998 RMK A01 T00451035  RH  056%=      5-min Rain = 0
KMC5 241010Z 35016KT 05/M04 A2998 RMK A01 T00451035  RH  056%=      5-min Rain = 0
KMC5 241011Z 34014KT 05/M04 A2999 RMK A01 T00451035  RH  056%=      5-min Rain = 0
KMC5 241012Z 34015KT 04/M03 A2999 RMK A01 T00441034  RH  057%=      5-min Rain = 0
KMC5 241013Z 34017KT 04/M03 A2999 RMK A01 T00441034  RH  057%=      5-min Rain = 0
KMC5 241014Z 34015KT 04/M03 A2999 RMK A01 T00441034  RH  057%=      5-min Rain = 0
KMC5 241015Z 34015KT 04/M03 A2999 RMK A01 T00431034  RH  057%=      5-min Rain = 0
KMC5 241016Z 34015KT 04/M03 A2999 RMK A01 T00431034  RH  057%=      5-min Rain = 0
KMC5 241017Z 33015KT 04/M03 A2999 RMK A01 T00431034  RH  057%=      5-min Rain = 0
KMC5 241018Z 34015KT 04/M03 A2999 RMK A01 T00421034  RH  058%=      5-min Rain = 0
KMC5 241019Z 33015KT 04/M03 A30 RMK A01 T00411034  RH  058%=      5-min Rain = 0
KMC5 241020Z 33015KT 04/M03 A30 RMK A01 T00411034  RH  058%=      5-min Rain = 0
KMC5 241021Z 33015KT 04/M03 A30 RMK A01 T00411034  RH  058%=      5-min Rain = 0
KMC5 241022Z 33015KT 04/M03 A30 RMK A01 T00411034  RH  058%=      5-min Rain = 0
KMC5 241023Z 33016KT 04/M03 A30 RMK A01 T00411034  RH  058%=      5-min Rain = 0
KMC5 241024Z 33015KT 04/M03 A30 RMK A01 T00411034  RH  058%=      5-min Rain = 0
KMC5 241025Z 33014KT 04/M03 A30 RMK A01 T00401034  RH  059%=      5-min Rain = 0
KMC5 241026Z 33015KT 04/M03 A30 RMK A01 T00391034  RH  059%=      5-min Rain = 0
KMC5 241027Z 33015KT 04/M03 A30 RMK A01 T00391034  RH  059%=      5-min Rain = 0
KMC5 241028Z 33015KT 04/M03 A30 RMK A01 T00391034  RH  059%=      5-min Rain = 0
KMC5 241029Z 33016KT 04/M03 A3001 RMK A01 T00381034  RH  059%=      5-min Rain = 0
KMC5 241030Z 32015KT 04/M03 A3001 RMK A01 T00381034  RH  060%=      5-min Rain = 0
KMC5 241031Z 32015KT 04/M03 A3001 RMK A01 T00371033  RH  060%=      5-min Rain = 0
KMC5 241032Z 32015KT 04/M03 A3001 RMK A01 T00361033  RH  060%=      5-min Rain = 0
KMC5 241033Z 32015KT 04/M03 A3001 RMK A01 T00351033  RH  061%=      5-min Rain = 0
KMC5 241034Z 32015KT 04/M03 A3001 RMK A01 T00351033  RH  061%=      5-min Rain = 0
KMC5 241035Z 32017KT 04/M03 A3001 RMK A01 T00351032  RH  061%=      5-min Rain = 0
KMC5 241036Z 33017KT 03/M03 A3001 RMK A01 T00341033  RH  061%=      5-min Rain = 0
KMC5 241037Z 32016KT 04/M03 A3001 RMK A01 T00351032  RH  061%=      5-min Rain = 0
KMC5 241038Z 33014KT 04/M03 A3001 RMK A01 T00351032  RH  062%=      5-min Rain = 0
KMC5 241039Z 33016KT 03/M03 A3002 RMK A01 T00341031  RH  062%=      5-min Rain = 0
KMC5 241040Z 33017KT 03/M03 A3002 RMK A01 T00341032  RH  062%=      5-min Rain = 0
KMC5 241041Z 33017KT 03/M03 A3002 RMK A01 T00341031  RH  062%=      5-min Rain = 0
KMC5 241042Z 33017KT 03/M03 A3002 RMK A01 T00341032  RH  062%=      5-min Rain = 0
KMC5 241043Z 32015KT 03/M03 A3002 RMK A01 T00341032  RH  062%=      5-min Rain = 0
KMC5 241044Z 33015KT 03/M03 A3002 RMK A01 T00331032  RH  063%=      5-min Rain = 0
KMC5 241045Z 32015KT 03/M03 A3002 RMK A01 T00321032  RH  063%=      5-min Rain = 0
KMC5 241046Z 32016KT 03/M03 A3002 RMK A01 T00321032  RH  063%=      5-min Rain = 0
KMC5 241047Z 33016KT 03/M03 A3002 RMK A01 T00311032  RH  063%=      5-min Rain = 0
KMC5 241048Z 33017KT 03/M03 A3002 RMK A01 T00311032  RH  063%=      5-min Rain = 0
KMC5 241049Z 33017KT 03/M03 A3002 RMK A01 T00311033  RH  063%=      5-min Rain = 0
KMC5 241050Z 33015KT 03/M03 A3002 RMK A01 T00311032  RH  063%=      5-min Rain = 0
KMC5 241051Z 33017KT 03/M03 A3001 RMK A01 T00301033  RH  063%=      5-min Rain = 0
KMC5 241052Z 33018KT 03/M03 A3001 RMK A01 T00301033  RH  063%=      5-min Rain = 0
KMC5 241053Z 33017KT 03/M03 A3001 RMK A01 T00301032  RH  063%=      5-min Rain = 0
KMC5 241054Z 33017KT 03/M03 A3001 RMK A01 T00301032  RH  064%=      5-min Rain = 0
KMC5 241055Z 33016KT 03/M03 A3001 RMK A01 T00301032  RH  064%=      5-min Rain = 0
KMC5 241056Z 33017KT 03/M03 A3001 RMK A01 T00291032  RH  064%=      5-min Rain = 0
KMC5 241057Z 33018KT 03/M03 A3001 RMK A01 T00291032  RH  064%=      5-min Rain = 0
KMC5 241058Z 33016KT 03/M03 A3002 RMK A01 T00291032  RH  064%=      5-min Rain = 0
KMC5 241059Z 33017KT 03/M03 A3002 RMK A01 T00291032  RH  064%=      5-min Rain = 0
KMC5 241100Z 33017KT 03/M03 A3002 RMK A01 T00291032  RH  064%=      5-min Rain = 0
KMC5 241101Z 33017KT 03/M03 A3002 RMK A01 T00291032  RH  064%=      5-min Rain = 0
KMC5 241102Z 34017KT 03/M03 A3002 RMK A01 T00291031  RH  064%=      5-min Rain = 0
KMC5 241103Z 34016KT 03/M03 A3002 RMK A01 T00291031  RH  065%=      5-min Rain = 0
KMC5 241104Z 33018KT 03/M03 A3002 RMK A01 T00281031  RH  065%=      5-min Rain = 0
KMC5 241105Z 34018KT 03/M03 A3002 RMK A01 T00291032  RH  065%=      5-min Rain = 0
KMC5 241106Z 33017KT 03/M03 A3002 RMK A01 T00301031  RH  064%=      5-min Rain = 0
KMC5 241107Z 34018KT 03/M03 A3002 RMK A01 T00301031  RH  064%=      5-min Rain = 0
KMC5 241108Z 34018KT 03/M03 A3003 RMK A01 T00301031  RH  064%=      5-min Rain = 0
KMC5 241109Z 33017KT 03/M03 A3003 RMK A01 T00291031  RH  064%=      5-min Rain = 0
KMC5 241110Z 33018KT 03/M03 A3003 RMK A01 T00291031  RH  065%=      5-min Rain = 0
KMC5 241111Z 33016KT 03/M03 A3003 RMK A01 T00291031  RH  065%=      5-min Rain = 0
KMC5 241112Z 33018KT 03/M03 A3003 RMK A01 T00281031  RH  065%=      5-min Rain = 0
KMC5 241113Z 33019KT 03/M03 A3003 RMK A01 T00281031  RH  065%=      5-min Rain = 0
KMC5 241114Z 33019KT 03/M03 A3003 RMK A01 T00281031  RH  065%=      5-min Rain = 0
KMC5 241115Z 33018KT 03/M03 A3003 RMK A01 T00291031  RH  065%=      5-min Rain = 0
KMC5 241116Z 33017G22KT 03/M03 A3004 RMK A01 T00281031  RH  065%=      5-min Rain = 0
KMC5 241117Z 33018KT 03/M03 A3004 RMK A01 T00271031  RH  065%=      5-min Rain = 0
KMC5 241118Z 33018KT 03/M03 A3004 RMK A01 T00271031  RH  065%=      5-min Rain = 0
KMC5 241119Z 33018KT 03/M03 A3004 RMK A01 T00271031  RH  066%=      5-min Rain = 0
KMC5 241120Z 33018KT 03/M03 A3004 RMK A01 T00261031  RH  066%=      5-min Rain = 0
KMC5 241121Z 33019KT 03/M03 A3004 RMK A01 T00261032  RH  066%=      5-min Rain = 0
KMC5 241122Z 33019KT 03/M03 A3004 RMK A01 T00261032  RH  066%=      5-min Rain = 0
KMC5 241123Z 33018KT 03/M03 A3004 RMK A01 T00261032  RH  066%=      5-min Rain = 0
KMC5 241124Z 34018KT 03/M03 A3004 RMK A01 T00261032  RH  066%=      5-min Rain = 0
KMC5 241125Z 34018KT 03/M03 A3004 RMK A01 T00261031  RH  066%=      5-min Rain = 0
KMC5 241126Z 34018KT 03/M03 A3004 RMK A01 T00261031  RH  066%=      5-min Rain = 0
KMC5 241127Z 34020KT 03/M03 A3004 RMK A01 T00251031  RH  066%=      5-min Rain = 0
KMC5 241128Z 34019KT 03/M03 A3004 RMK A01 T00261031  RH  066%=      5-min Rain = 0
KMC5 241129Z 34019KT 03/M03 A3004 RMK A01 T00261031  RH  066%=      5-min Rain = 0
KMC5 241130Z 34019KT 03/M03 A3004 RMK A01 T00261031  RH  066%=      5-min Rain = 0
KMC5 241131Z 34018KT 03/M03 A3004 RMK A01 T00251031  RH  066%=      5-min Rain = 0
KMC5 241132Z 34019KT 03/M03 A3005 RMK A01 T00251031  RH  067%=      5-min Rain = 0
KMC5 241133Z 34016KT 03/M03 A3005 RMK A01 T00251031  RH  067%=      5-min Rain = 0
KMC5 241134Z 34018KT 02/M03 A3005 RMK A01 T00231031  RH  067%=      5-min Rain = 0
KMC5 241135Z 34018KT 02/M03 A3005 RMK A01 T00231031  RH  067%=      5-min Rain = 0
KMC5 241136Z 34018KT 02/M03 A3005 RMK A01 T00231031  RH  067%=      5-min Rain = 0
KMC5 241137Z 33019KT 02/M03 A3005 RMK A01 T00231032  RH  067%=      5-min Rain = 0
KMC5 241138Z 33018KT 02/M03 A3005 RMK A01 T00231032  RH  067%=      5-min Rain = 0
KMC5 241139Z 33019KT 02/M03 A3005 RMK A01 T00231032  RH  067%=      5-min Rain = 0
KMC5 241140Z 33018KT 02/M03 A3005 RMK A01 T00231032  RH  067%=      5-min Rain = 0
KMC5 241141Z 33019KT 02/M03 A3005 RMK A01 T00221032  RH  067%=      5-min Rain = 0
KMC5 241142Z 33019KT 02/M03 A3005 RMK A01 T00221032  RH  067%=      5-min Rain = 0
KMC5 241143Z 33018KT 02/M03 A3005 RMK A01 T00221032  RH  067%=      5-min Rain = 0
KMC5 241144Z 33019KT 02/M03 A3005 RMK A01 T00211032  RH  068%=      5-min Rain = 0
KMC5 241145Z 33019KT 02/M03 A3005 RMK A01 T00211032  RH  068%=      5-min Rain = 0
KMC5 241146Z 33020KT 02/M03 A3005 RMK A01 T00211033  RH  068%=      5-min Rain = 0
KMC5 241147Z 33019KT 02/M03 A3006 RMK A01 T00211032  RH  068%=      5-min Rain = 0
KMC5 241148Z 33020KT 02/M03 A3006 RMK A01 T00201033  RH  068%=      5-min Rain = 0
KMC5 241149Z 33019KT 02/M03 A3006 RMK A01 T00201033  RH  068%=      5-min Rain = 0
KMC5 241150Z 33020KT 02/M03 A3006 RMK A01 T00201033  RH  068%=      5-min Rain = 0
KMC5 241151Z 33017KT 02/M03 A3006 RMK A01 T00191033  RH  068%=      5-min Rain = 0
KMC5 241152Z 33018KT 02/M03 A3006 RMK A01 T00191033  RH  069%=      5-min Rain = 0
KMC5 241153Z 33018KT 02/M03 A3006 RMK A01 T00181033  RH  069%=      5-min Rain = 0
KMC5 241154Z 33018G23KT 02/M03 A3006 RMK A01 T00181033  RH  069%=      5-min Rain = 0
KMC5 241155Z 33018G23KT 02/M03 A3006 RMK A01 T00171033  RH  069%=      5-min Rain = 0
KMC5 241156Z 33018KT 02/M03 A3006 RMK A01 T00171033  RH  069%=      5-min Rain = 0
KMC5 241157Z 33019KT 02/M03 A3006 RMK A01 T00161033  RH  070%=      5-min Rain = 0
KMC5 241158Z 33019KT 02/M03 A3007 RMK A01 T00161033  RH  070%=      5-min Rain = 0
KMC5 241159Z 34018KT 02/M03 A3007 RMK A01 T00161033  RH  070%=      5-min Rain = 0
KMC5 241200Z 33019KT 02/M03 A3007 RMK A01 T00161033  RH  070%=      5-min Rain = 0
KMC5 241201Z 34017KT 02/M03 A3007 RMK A01 T00161033  RH  070%=      5-min Rain = 0
KMC5 241202Z 33018KT 02/M03 A3007 RMK A01 T00161032  RH  070%=      5-min Rain = 0
KMC5 241203Z 33018KT 02/M03 A3007 RMK A01 T00161032  RH  070%=      5-min Rain = 0
KMC5 241204Z 33018KT 02/M03 A3007 RMK A01 T00161033  RH  070%=      5-min Rain = 0
KMC5 241205Z 33018KT 02/M03 A3007 RMK A01 T00161032  RH  070%=      5-min Rain = 0
KMC5 241206Z 34018KT 02/M03 A3007 RMK A01 T00161032  RH  070%=      5-min Rain = 0
KMC5 241207Z 34018KT 02/M03 A3007 RMK A01 T00151032  RH  070%=      5-min Rain = 0
KMC5 241208Z 34019KT 02/M03 A3007 RMK A01 T00151033  RH  071%=      5-min Rain = 0
KMC5 241209Z 34019KT 02/M03 A3008 RMK A01 T00151032  RH  071%=      5-min Rain = 0
KMC5 241210Z 34017KT 02/M03 A3008 RMK A01 T00151032  RH  071%=      5-min Rain = 0
KMC5 241211Z 34018KT 01/M03 A3008 RMK A01 T00141032  RH  071%=      5-min Rain = 0
KMC5 241212Z 34019KT 01/M03 A3008 RMK A01 T00141032  RH  071%=      5-min Rain = 0
KMC5 241213Z 34019KT 01/M03 A3008 RMK A01 T00141032  RH  071%=      5-min Rain = 0
KMC5 241214Z 34018KT 01/M03 A3008 RMK A01 T00141032  RH  071%=      5-min Rain = 0
KMC5 241215Z 34018KT 01/M03 A3008 RMK A01 T00141032  RH  071%=      5-min Rain = 0
KMC5 241216Z 34018KT 01/M03 A3008 RMK A01 T00141032  RH  071%=      5-min Rain = 0
KMC5 241217Z 34018KT 01/M03 A3008 RMK A01 T00141032  RH  071%=      5-min Rain = 0
KMC5 241218Z 34018KT 01/M03 A3008 RMK A01 T00141032  RH  071%=      5-min Rain = 0
KMC5 241219Z 34018KT 01/M03 A3008 RMK A01 T00141032  RH  072%=      5-min Rain = 0
KMC5 241220Z 34018KT 01/M03 A3008 RMK A01 T00141031  RH  072%=      5-min Rain = 0
KMC5 241221Z 34019KT 01/M03 A3008 RMK A01 T00141032  RH  072%=      5-min Rain = 0
KMC5 241222Z 34019KT 01/M03 A3008 RMK A01 T00141032  RH  072%=      5-min Rain = 0
KMC5 241223Z 34020KT 01/M03 A3008 RMK A01 T00141032  RH  072%=      5-min Rain = 0
KMC5 241224Z 34019KT 01/M03 A3008 RMK A01 T00141032  RH  072%=      5-min Rain = 0
KMC5 241225Z 34019G24KT 01/M03 A3008 RMK A01 T00141032  RH  072%=      5-min Rain = 0
KMC5 241226Z 34020KT 01/M03 A3008 RMK A01 T00141032  RH  072%=      5-min Rain = 0
KMC5 241227Z 33020KT 01/M03 A3008 RMK A01 T00141032  RH  071%=      5-min Rain = 0
KMC5 241228Z 34019KT 01/M03 A3008 RMK A01 T00141032  RH  071%=      5-min Rain = 0
KMC5 241229Z 34017KT 01/M03 A3009 RMK A01 T00131032  RH  072%=      5-min Rain = 0
KMC5 241230Z 34017KT 01/M03 A3009 RMK A01 T00131032  RH  072%=      5-min Rain = 0
KMC5 241231Z 34016KT 01/M03 A3009 RMK A01 T00121033  RH  072%=      5-min Rain = 0
KMC5 241232Z 34018KT 01/M03 A3009 RMK A01 T00111033  RH  072%=      5-min Rain = 0
KMC5 241233Z 34018KT 01/M03 A3009 RMK A01 T00111033  RH  073%=      5-min Rain = 0
KMC5 241234Z 34018KT 01/M03 A3009 RMK A01 T00111033  RH  073%=      5-min Rain = 0
KMC5 241235Z 33017KT 01/M03 A3009 RMK A01 T00111033  RH  073%=      5-min Rain = 0
KMC5 241236Z 34018KT 01/M03 A3009 RMK A01 T00111033  RH  073%=      5-min Rain = 0
KMC5 241237Z 33018KT 01/M03 A3009 RMK A01 T00111033  RH  073%=      5-min Rain = 0
KMC5 241238Z 33018KT 01/M03 A3009 RMK A01 T00101033  RH  073%=      5-min Rain = 0
KMC5 241239Z 33018KT 01/M03 A3009 RMK A01 T00101033  RH  073%=      5-min Rain = 0
KMC5 241240Z 33019KT 01/M03 A3009 RMK A01 T00101033  RH  073%=      5-min Rain = 0
KMC5 241241Z 34017KT 01/M03 A3009 RMK A01 T00101033  RH  073%=      5-min Rain = 0
KMC5 241242Z 33018KT 01/M03 A3009 RMK A01 T00101033  RH  073%=      5-min Rain = 0
KMC5 241243Z 33017KT 01/M03 A3009 RMK A01 T00091033  RH  073%=      5-min Rain = 0
KMC5 241244Z 34018KT 01/M03 A3009 RMK A01 T00091033  RH  073%=      5-min Rain = 0
KMC5 241245Z 33016G21KT 01/M03 A3009 RMK A01 T00091034  RH  073%=      5-min Rain = 0
KMC5 241246Z 34018KT 01/M03 A3009 RMK A01 T00091034  RH  073%=      5-min Rain = 0
KMC5 241247Z 33019KT 01/M03 A3009 RMK A01 T00081034  RH  073%=      5-min Rain = 0
KMC5 241248Z 34018KT 01/M04 A3009 RMK A01 T00081035  RH  073%=      5-min Rain = 0
KMC5 241249Z 33018KT 01/M04 A3009 RMK A01 T00081035  RH  073%=      5-min Rain = 0
KMC5 241250Z 33018KT 01/M04 A3009 RMK A01 T00081035  RH  073%=      5-min Rain = 0
KMC5 241251Z 34018KT 01/M04 A3009 RMK A01 T00081035  RH  073%=      5-min Rain = 0
KMC5 241252Z 33019KT 01/M04 A3009 RMK A01 T00081035  RH  073%=      5-min Rain = 0
KMC5 241253Z 34018KT 01/M04 A3009 RMK A01 T00071036  RH  073%=      5-min Rain = 0
KMC5 241254Z 34019KT 01/M04 A3009 RMK A01 T00071037  RH  072%=      5-min Rain = 0
KMC5 241255Z 34016KT 01/M04 A3009 RMK A01 T00071037  RH  072%=      5-min Rain = 0
KMC5 241256Z 34017KT 01/M04 A3009 RMK A01 T00071037  RH  072%=      5-min Rain = 0
KMC5 241257Z 34018KT 01/M04 A301 RMK A01 T00071037  RH  073%=      5-min Rain = 0
KMC5 241258Z 34017KT 01/M04 A301 RMK A01 T00061037  RH  073%=      5-min Rain = 0
KMC5 241259Z 34017KT 01/M04 A301 RMK A01 T00061037  RH  073%=      5-min Rain = 0
KMC5 241300Z 34016KT 01/M04 A301 RMK A01 T00061038  RH  073%=      5-min Rain = 0
KMC5 241301Z 34016KT 01/M04 A301 RMK A01 T00061038  RH  073%=      5-min Rain = 0
KMC5 241302Z 34016KT 01/M04 A301 RMK A01 T00061038  RH  073%=      5-min Rain = 0
KMC5 241303Z 34017KT 01/M04 A301 RMK A01 T00051038  RH  073%=      5-min Rain = 0
KMC5 241304Z 34017KT 01/M04 A301 RMK A01 T00061038  RH  073%=      5-min Rain = 0
KMC5 241305Z 34018KT 01/M04 A301 RMK A01 T00051038  RH  072%=      5-min Rain = 0
KMC5 241306Z 33018KT 01/M04 A301 RMK A01 T00051039  RH  072%=      5-min Rain = 0
KMC5 241307Z 33017KT 01/M04 A301 RMK A01 T00061039  RH  072%=      5-min Rain = 0
KMC5 241308Z 33017KT 01/M04 A301 RMK A01 T00061039  RH  072%=      5-min Rain = 0
KMC5 241309Z 33018KT 01/M04 A301 RMK A01 T00061039  RH  072%=      5-min Rain = 0
KMC5 241310Z 33020KT 01/M04 A301 RMK A01 T00061039  RH  072%=      5-min Rain = 0
KMC5 241311Z 34018KT 01/M04 A301 RMK A01 T00061039  RH  072%=      5-min Rain = 0
KMC5 241312Z 33017KT 01/M04 A301 RMK A01 T00061039  RH  072%=      5-min Rain = 0
KMC5 241313Z 33020KT 01/M04 A301 RMK A01 T00051040  RH  072%=      5-min Rain = 0
KMC5 241314Z 33019KT 01/M04 A301 RMK A01 T00051040  RH  072%=      5-min Rain = 0
KMC5 241315Z 33019KT 00/M04 A301 RMK A01 T00041041  RH  072%=      5-min Rain = 0
KMC5 241316Z 33019KT 00/M04 A301 RMK A01 T00041041  RH  072%=      5-min Rain = 0
KMC5 241317Z 33019KT 01/M04 A301 RMK A01 T00051040  RH  072%=      5-min Rain = 0
KMC5 241318Z 33021KT 01/M04 A301 RMK A01 T00051041  RH  072%=      5-min Rain = 0
KMC5 241319Z 34020G25KT 01/M04 A301 RMK A01 T00051041  RH  071%=      5-min Rain = 0
KMC5 241320Z 34020G26KT 01/M04 A301 RMK A01 T00051041  RH  071%=      5-min Rain = 0
KMC5 241321Z 34021KT 01/M04 A301 RMK A01 T00051042  RH  071%=      5-min Rain = 0
KMC5 241322Z 34021KT 01/M04 A301 RMK A01 T00051042  RH  070%=      5-min Rain = 0
KMC5 241323Z 34020KT 01/M04 A301 RMK A01 T00061042  RH  070%=      5-min Rain = 0
KMC5 241324Z 34020KT 01/M04 A301 RMK A01 T00051042  RH  070%=      5-min Rain = 0
KMC5 241325Z 34019G24KT 01/M04 A3011 RMK A01 T00051042  RH  070%=      5-min Rain = 0
KMC5 241326Z 34019KT 01/M04 A3011 RMK A01 T00051042  RH  071%=      5-min Rain = 0
KMC5 241327Z 34020KT 00/M04 A3011 RMK A01 T00041043  RH  071%=      5-min Rain = 0
KMC5 241328Z 34017KT 00/M04 A3011 RMK A01 T00041043  RH  071%=      5-min Rain = 0
KMC5 241329Z 34020KT 00/M04 A3011 RMK A01 T00041043  RH  071%=      5-min Rain = 0
KMC5 241330Z 34019KT 00/M04 A3011 RMK A01 T00041043  RH  071%=      5-min Rain = 0
KMC5 241331Z 34021KT 01/M04 A3011 RMK A01 T00051044  RH  070%=      5-min Rain = 0
KMC5 241332Z 34018KT 01/M04 A3011 RMK A01 T00051044  RH  070%=      5-min Rain = 0
KMC5 241333Z 34019KT 01/M04 A3011 RMK A01 T00051043  RH  070%=      5-min Rain = 0
KMC5 241334Z 34020KT 01/M04 A3011 RMK A01 T00051043  RH  070%=      5-min Rain = 0
KMC5 241335Z 34021KT 01/M04 A3011 RMK A01 T00051043  RH  070%=      5-min Rain = 0
KMC5 241336Z 34020KT 01/M04 A3011 RMK A01 T00051044  RH  070%=      5-min Rain = 0
KMC5 241337Z 34018KT 01/M04 A3011 RMK A01 T00051044  RH  070%=      5-min Rain = 0
KMC5 241338Z 34019KT 01/M04 A3011 RMK A01 T00051044  RH  070%=      5-min Rain = 0
KMC5 241339Z 34021KT 01/M05 A3011 RMK A01 T00051045  RH  070%=      5-min Rain = 0
KMC5 241340Z 34020KT 01/M05 A3011 RMK A01 T00051045  RH  069%=      5-min Rain = 0
KMC5 241341Z 34019G24KT 01/M05 A3011 RMK A01 T00051045  RH  069%=      5-min Rain = 0
KMC5 241342Z 34021KT 01/M04 A3011 RMK A01 T00051044  RH  070%=      5-min Rain = 0
KMC5 241343Z 34020KT 01/M05 A3012 RMK A01 T00051045  RH  069%=      5-min Rain = 0
KMC5 241344Z 34019KT 01/M05 A3012 RMK A01 T00051045  RH  069%=      5-min Rain = 0
KMC5 241345Z 34021KT 01/M05 A3012 RMK A01 T00051045  RH  069%=      5-min Rain = 0
KMC5 241346Z 34020KT 01/M05 A3012 RMK A01 T00051045  RH  069%=      5-min Rain = 0
KMC5 241347Z 34019KT 01/M05 A3012 RMK A01 T00061045  RH  069%=      5-min Rain = 0
KMC5 241348Z 34020G26KT 01/M05 A3012 RMK A01 T00061045  RH  069%=      5-min Rain = 0
KMC5 241349Z 34021KT 01/M05 A3012 RMK A01 T00061046  RH  068%=      5-min Rain = 0
KMC5 241350Z 34020KT 01/M05 A3012 RMK A01 T00061046  RH  068%=      5-min Rain = 0
KMC5 241351Z 34020KT 01/M05 A3012 RMK A01 T00071046  RH  068%=      5-min Rain = 0
KMC5 241352Z 34019KT 01/M05 A3012 RMK A01 T00071046  RH  068%=      5-min Rain = 0
KMC5 241353Z 34021KT 01/M05 A3012 RMK A01 T00071046  RH  068%=      5-min Rain = 0
KMC5 241354Z 34019KT 01/M05 A3013 RMK A01 T00081046  RH  067%=      5-min Rain = 0
KMC5 241355Z 34020KT 01/M05 A3013 RMK A01 T00081046  RH  067%=      5-min Rain = 0
KMC5 241356Z 34021KT 01/M05 A3013 RMK A01 T00081046  RH  067%=      5-min Rain = 0
KMC5 241357Z 34019KT 01/M05 A3013 RMK A01 T00081046  RH  067%=      5-min Rain = 0
KMC5 241358Z 33020G25KT 01/M05 A3013 RMK A01 T00081046  RH  067%=      5-min Rain = 0
KMC5 241359Z 34020KT 01/M05 A3013 RMK A01 T00081046  RH  067%=      5-min Rain = 0
KMC5 241400Z 34018KT 01/M05 A3013 RMK A01 T00091046  RH  067%=      5-min Rain = 0
KMC5 241401Z 34022KT 01/M05 A3013 RMK A01 T00091046  RH  067%=      5-min Rain = 0
KMC5 241402Z 34020KT 01/M05 A3014 RMK A01 T00091046  RH  067%=      5-min Rain = 0
KMC5 241403Z 34018KT 01/M05 A3014 RMK A01 T00091046  RH  067%=      5-min Rain = 0
KMC5 241404Z 34019G24KT 01/M05 A3014 RMK A01 T00091045  RH  067%=      5-min Rain = 0
KMC5 241405Z 34019KT 01/M05 A3014 RMK A01 T00101046  RH  067%=      5-min Rain = 0
KMC5 241406Z 34021KT 01/M05 A3014 RMK A01 T00101045  RH  066%=      5-min Rain = 0
KMC5 241407Z 34023KT 01/M05 A3014 RMK A01 T00111046  RH  066%=      5-min Rain = 0
KMC5 241408Z 34021KT 01/M05 A3014 RMK A01 T00111046  RH  066%=      5-min Rain = 0
KMC5 241409Z 34023KT 01/M05 A3014 RMK A01 T00111046  RH  066%=      5-min Rain = 0
KMC5 241410Z 34022KT 01/M05 A3014 RMK A01 T00121046  RH  065%=      5-min Rain = 0
KMC5 241411Z 34023G29KT 01/M05 A3014 RMK A01 T00121046  RH  065%=      5-min Rain = 0
KMC5 241412Z 34022KT 01/M05 A3014 RMK A01 T00121047  RH  065%=      5-min Rain = 0
KMC5 241413Z 34020KT 01/M05 A3014 RMK A01 T00131046  RH  065%=      5-min Rain = 0
KMC5 241414Z 34022KT 01/M05 A3015 RMK A01 T00131045  RH  065%=      5-min Rain = 0
KMC5 241415Z 34021KT 01/M05 A3015 RMK A01 T00131046  RH  065%=      5-min Rain = 0
KMC5 241416Z 34021KT 01/M05 A3015 RMK A01 T00141045  RH  065%=      5-min Rain = 0
KMC5 241417Z 34024KT 01/M05 A3015 RMK A01 T00141045  RH  065%=      5-min Rain = 0
KMC5 241418Z 34023KT 01/M05 A3015 RMK A01 T00141046  RH  064%=      5-min Rain = 0
KMC5 241419Z 34020KT 01/M05 A3015 RMK A01 T00141046  RH  064%=      5-min Rain = 0
KMC5 241420Z 34020KT 02/M05 A3015 RMK A01 T00151045  RH  064%=      5-min Rain = 0
KMC5 241421Z 34019G24KT 02/M04 A3015 RMK A01 T00161044  RH  065%=      5-min Rain = 0
KMC5 241422Z 34019KT 02/M04 A3015 RMK A01 T00161044  RH  064%=      5-min Rain = 0
KMC5 241423Z 34018KT 02/M04 A3015 RMK A01 T00161044  RH  064%=      5-min Rain = 0
KMC5 241424Z 34020G25KT 02/M04 A3015 RMK A01 T00161044  RH  064%=      5-min Rain = 0
KMC5 241425Z 34020KT 02/M04 A3015 RMK A01 T00171044  RH  064%=      5-min Rain = 0
KMC5 241426Z 34021KT 02/M04 A3015 RMK A01 T00171044  RH  064%=      5-min Rain = 0
KMC5 241427Z 34020KT 02/M05 A3015 RMK A01 T00171045  RH  064%=      5-min Rain = 0
KMC5 241428Z 34021KT 02/M04 A3016 RMK A01 T00171044  RH  064%=      5-min Rain = 0
KMC5 241429Z 34022KT 02/M05 A3016 RMK A01 T00171045  RH  063%=      5-min Rain = 0
KMC5 241430Z 34020KT 02/M05 A3016 RMK A01 T00171045  RH  063%=      5-min Rain = 0
KMC5 241431Z 34020KT 02/M04 A3016 RMK A01 T00181044  RH  063%=      5-min Rain = 0
KMC5 241432Z 34021KT 02/M05 A3016 RMK A01 T00191045  RH  063%=      5-min Rain = 0
KMC5 241433Z 35021KT 02/M05 A3016 RMK A01 T00201045  RH  062%=      5-min Rain = 0
KMC5 241434Z 34021KT 02/M05 A3016 RMK A01 T00201045  RH  062%=      5-min Rain = 0
KMC5 241435Z 34019KT 02/M04 A3016 RMK A01 T00201044  RH  063%=      5-min Rain = 0
KMC5 241436Z 35020KT 02/M04 A3016 RMK A01 T00201044  RH  063%=      5-min Rain = 0
KMC5 241437Z 35021KT 02/M04 A3016 RMK A01 T00211044  RH  062%=      5-min Rain = 0
KMC5 241438Z 35021KT 02/M05 A3016 RMK A01 T00211045  RH  062%=      5-min Rain = 0
KMC5 241439Z 35019KT 02/M05 A3016 RMK A01 T00211045  RH  062%=      5-min Rain = 0
KMC5 241440Z 35021KT 02/M04 A3016 RMK A01 T00211044  RH  062%=      5-min Rain = 0
KMC5 241441Z 34021KT 02/M05 A3016 RMK A01 T00211045  RH  062%=      5-min Rain = 0
KMC5 241442Z 35019KT 02/M04 A3017 RMK A01 T00221044  RH  062%=      5-min Rain = 0
KMC5 241443Z 35017KT 02/M04 A3017 RMK A01 T00231043  RH  062%=      5-min Rain = 0
KMC5 241444Z 35020KT 03/M04 A3017 RMK A01 T00251043  RH  061%=      5-min Rain = 0
KMC5 241445Z 35019KT 03/M05 A3017 RMK A01 T00251045  RH  060%=      5-min Rain = 0
KMC5 241446Z 35020KT 03/M04 A3017 RMK A01 T00261044  RH  060%=      5-min Rain = 0
KMC5 241447Z 34018G23KT 03/M04 A3017 RMK A01 T00271044  RH  060%=      5-min Rain = 0
KMC5 241448Z 35021KT 03/M05 A3017 RMK A01 T00271045  RH  059%=      5-min Rain = 0
KMC5 241449Z 35020KT 03/M05 A3017 RMK A01 T00271045  RH  059%=      5-min Rain = 0
KMC5 241450Z 35021KT 03/M05 A3017 RMK A01 T00271046  RH  059%=      5-min Rain = 0
KMC5 241451Z 35020KT 03/M05 A3017 RMK A01 T00281046  RH  058%=      5-min Rain = 0
KMC5 241452Z 35019KT 03/M05 A3017 RMK A01 T00281045  RH  059%=      5-min Rain = 0
KMC5 241453Z 35019KT 03/M04 A3017 RMK A01 T00291044  RH  059%=      5-min Rain = 0
KMC5 241454Z 35019G24KT 03/M05 A3017 RMK A01 T00291045  RH  058%=      5-min Rain = 0
KMC5 241455Z 35020KT 03/M05 A3017 RMK A01 T00291046  RH  058%=      5-min Rain = 0
KMC5 241456Z 35020KT 03/M05 A3017 RMK A01 T00291045  RH  058%=      5-min Rain = 0
KMC5 241457Z 35018KT 03/M04 A3017 RMK A01 T00301044  RH  059%=      5-min Rain = 0
KMC5 241458Z 35016KT 03/M04 A3017 RMK A01 T00311043  RH  058%=      5-min Rain = 0
KMC5 241459Z 35017KT 03/M04 A3017 RMK A01 T00331043  RH  058%=      5-min Rain = 0
KMC5 241500Z 35018KT 03/M04 A3017 RMK A01 T00331043  RH  057%=      5-min Rain = 0
KMC5 241501Z 35020KT 03/M05 A3018 RMK A01 T00321045  RH  057%=      5-min Rain = 0
KMC5 241502Z 35020G25KT 03/M05 A3018 RMK A01 T00321045  RH  057%=      5-min Rain = 0
KMC5 241503Z 36020KT 03/M05 A3018 RMK A01 T00331046  RH  056%=      5-min Rain = 0
KMC5 241504Z 36019KT 03/M05 A3018 RMK A01 T00341045  RH  056%=      5-min Rain = 0
KMC5 241505Z 36016KT 04/M04 A3018 RMK A01 T00351044  RH  056%=      5-min Rain = 0
KMC5 241506Z 35020KT 04/M04 A3018 RMK A01 T00381044  RH  055%=      5-min Rain = 0
KMC5 241507Z 35020KT 04/M05 A3018 RMK A01 T00371047  RH  054%=      5-min Rain = 0
KMC5 241508Z 36019KT 04/M05 A3018 RMK A01 T00361047  RH  055%=      5-min Rain = 0
KMC5 241509Z 35023G28KT 04/M05 A3018 RMK A01 T00361046  RH  055%=      5-min Rain = 0
KMC5 241510Z 35022G27KT 04/M05 A3018 RMK A01 T00361049  RH  054%=      5-min Rain = 0
KMC5 241511Z 35019KT 04/M05 A3018 RMK A01 T00351049  RH  054%=      5-min Rain = 0
KMC5 241512Z 36019KT 04/M05 A3018 RMK A01 T00361047  RH  055%=      5-min Rain = 0
KMC5 241513Z 00022G27KT 04/M05 A3018 RMK A01 T00371047  RH  054%=      5-min Rain = 0
KMC5 241514Z 36024KT 04/M05 A3018 RMK A01 T00371050  RH  053%=      5-min Rain = 0
KMC5 241515Z 35023G29KT 04/M05 A3018 RMK A01 T00371051  RH  053%=      5-min Rain = 0
KMC5 241516Z 35025KT 04/M05 A3018 RMK A01 T00371050  RH  053%=      5-min Rain = 0
KMC5 241517Z 35021KT 04/M05 A3018 RMK A01 T00361051  RH  053%=      5-min Rain = 0
KMC5 241518Z 35024KT 04/M05 A3018 RMK A01 T00361049  RH  054%=      5-min Rain = 0
KMC5 241519Z 35022KT 04/M05 A3018 RMK A01 T00371049  RH  053%=      5-min Rain = 0
KMC5 241520Z 00021KT 04/M05 A3018 RMK A01 T00381049  RH  053%=      5-min Rain = 0
KMC5 241521Z 36020G25KT 04/M05 A3018 RMK A01 T00381049  RH  053%=      5-min Rain = 0
KMC5 241522Z 35021G26KT 04/M05 A3018 RMK A01 T00401048  RH  053%=      5-min Rain = 0
KMC5 241523Z 35023KT 04/M05 A3018 RMK A01 T00401051  RH  052%=      5-min Rain = 0
KMC5 241524Z 36021KT 04/M05 A3018 RMK A01 T00381050  RH  052%=      5-min Rain = 0
KMC5 241525Z 35021KT 04/M05 A3018 RMK A01 T00401049  RH  052%=      5-min Rain = 0
KMC5 241526Z 36023KT 04/M05 A3018 RMK A01 T00411049  RH  052%=      5-min Rain = 0
KMC5 241527Z 36020KT 04/M05 A3018 RMK A01 T00411050  RH  051%=      5-min Rain = 0
KMC5 241528Z 00025KT 04/M05 A3018 RMK A01 T00421051  RH  051%=      5-min Rain = 0
KMC5 241529Z 36022KT 04/M05 A3018 RMK A01 T00421052  RH  050%=      5-min Rain = 0
KMC5 241530Z 36021KT 04/M05 A3019 RMK A01 T00421052  RH  051%=      5-min Rain = 0
KMC5 241531Z 36020G25KT 04/M05 A3019 RMK A01 T00421051  RH  051%=      5-min Rain = 0
KMC5 241532Z 36022KT 04/M05 A3019 RMK A01 T00431050  RH  051%=      5-min Rain = 0
KMC5 241533Z 36023KT 04/M05 A3018 RMK A01 T00431052  RH  050%=      5-min Rain = 0
KMC5 241534Z 36025G30KT 04/M05 A3018 RMK A01 T00431052  RH  050%=      5-min Rain = 0
KMC5 241535Z 00023KT 04/M05 A3018 RMK A01 T00421053  RH  050%=      5-min Rain = 0
KMC5 241536Z 36022KT 04/M05 A3018 RMK A01 T00431053  RH  050%=      5-min Rain = 0
KMC5 241537Z 36024KT 04/M05 A3019 RMK A01 T00431053  RH  050%=      5-min Rain = 0
KMC5 241538Z 00025KT 04/M05 A3019 RMK A01 T00421054  RH  050%=      5-min Rain = 0
KMC5 241539Z 00022G27KT 04/M05 A3019 RMK A01 T00421053  RH  050%=      5-min Rain = 0
KMC5 241540Z 00022KT 04/M05 A3019 RMK A01 T00431053  RH  050%=      5-min Rain = 0
KMC5 241541Z 00019KT 04/M05 A3019 RMK A01 T00441053  RH  049%=      5-min Rain = 0
KMC5 241542Z 01020KT 05/M05 A3019 RMK A01 T00461051  RH  049%=      5-min Rain = 0
KMC5 241543Z 36020KT 05/M05 A3019 RMK A01 T00471053  RH  048%=      5-min Rain = 0
KMC5 241544Z 35023KT 05/M05 A3019 RMK A01 T00471052  RH  048%=      5-min Rain = 0
KMC5 241545Z 35022KT 05/M05 A3019 RMK A01 T00461054  RH  048%=      5-min Rain = 0
KMC5 241546Z 35023KT 05/M05 A3019 RMK A01 T00461053  RH  049%=      5-min Rain = 0
KMC5 241547Z 36019KT 05/M05 A3019 RMK A01 T00461053  RH  049%=      5-min Rain = 0
KMC5 241548Z 36020KT 05/M05 A3019 RMK A01 T00481050  RH  049%=      5-min Rain = 0
KMC5 241549Z 01020KT 05/M05 A3019 RMK A01 T00491052  RH  048%=      5-min Rain = 0
KMC5 241550Z 01020KT 05/M05 A3019 RMK A01 T00511051  RH  048%=      5-min Rain = 0
KMC5 241551Z 01022KT 05/M05 A3019 RMK A01 T00531051  RH  047%=      5-min Rain = 0
KMC5 241552Z 36023KT 05/M05 A3019 RMK A01 T00511053  RH  047%=      5-min Rain = 0
KMC5 241553Z 36021KT 05/M05 A3019 RMK A01 T00491052  RH  048%=      5-min Rain = 0
KMC5 241554Z 36021KT 05/M05 A3019 RMK A01 T00501052  RH  048%=      5-min Rain = 0
KMC5 241555Z 35022KT 05/M05 A3019 RMK A01 T00511053  RH  047%=      5-min Rain = 0
KMC5 241556Z 00020KT 05/M05 A3019 RMK A01 T00511053  RH  047%=      5-min Rain = 0
KMC5 241557Z 36018KT 05/M05 A3019 RMK A01 T00531051  RH  047%=      5-min Rain = 0
KMC5 241558Z 00022KT 05/M05 A3019 RMK A01 T00541053  RH  046%=      5-min Rain = 0
KMC5 241559Z 01020KT 05/M06 A3019 RMK A01 T00531055  RH  046%=      5-min Rain = 0
KMC5 241600Z 36018G23KT 05/M05 A3019 RMK A01 T00531052  RH  047%=      5-min Rain = 0
KMC5 241601Z 00018KT 06/M05 A3019 RMK A01 T00551052  RH  046%=      5-min Rain = 0
KMC5 241602Z 00017G25KT 06/M05 A302 RMK A01 T00571049  RH  047%=      5-min Rain = 0
KMC5 241603Z 00022KT 06/M05 A3019 RMK A01 T00591053  RH  045%=      5-min Rain = 0
KMC5 241604Z 00022KT 06/M06 A3019 RMK A01 T00551056  RH  045%=      5-min Rain = 0
KMC5 241605Z 01019KT 05/M06 A302 RMK A01 T00531058  RH  045%=      5-min Rain = 0
KMC5 241606Z 01019KT 05/M06 A302 RMK A01 T00531055  RH  046%=      5-min Rain = 0
KMC5 241607Z 01018KT 06/M05 A302 RMK A01 T00551053  RH  046%=      5-min Rain = 0
KMC5 241608Z 00022KT 06/M05 A302 RMK A01 T00571054  RH  045%=      5-min Rain = 0
KMC5 241609Z 01020KT 06/M06 A302 RMK A01 T00571055  RH  045%=      5-min Rain = 0
KMC5 241610Z 00021KT 06/M06 A302 RMK A01 T00571056  RH  044%=      5-min Rain = 0
KMC5 241611Z 00020KT 06/M06 A302 RMK A01 T00551057  RH  044%=      5-min Rain = 0
KMC5 241612Z 00021KT 06/M06 A302 RMK A01 T00551056  RH  045%=      5-min Rain = 0
KMC5 241613Z 36020KT 06/M06 A302 RMK A01 T00551057  RH  044%=      5-min Rain = 0
KMC5 241614Z 00016KT 06/M05 A302 RMK A01 T00571054  RH  045%=      5-min Rain = 0
KMC5 241615Z 00017KT 06/M05 A302 RMK A01 T00621050  RH  045%=      5-min Rain = 0
KMC5 241616Z 00018KT 07/M05 A302 RMK A01 T00651051  RH  043%=      5-min Rain = 0
KMC5 241617Z 00021G26KT 06/M06 A302 RMK A01 T00641055  RH  042%=      5-min Rain = 0
KMC5 241618Z 01020KT 06/M06 A302 RMK A01 T00601058  RH  042%=      5-min Rain = 0
KMC5 241619Z 00022KT 06/M06 A302 RMK A01 T00581058  RH  043%=      5-min Rain = 0
KMC5 241620Z 01019KT 06/M06 A302 RMK A01 T00581058  RH  043%=      5-min Rain = 0
KMC5 241621Z 36018KT 06/M06 A302 RMK A01 T00581058  RH  043%=      5-min Rain = 0
KMC5 241622Z 36017KT 06/M06 A302 RMK A01 T00601055  RH  043%=      5-min Rain = 0
KMC5 241623Z 36020KT 06/M06 A302 RMK A01 T00621056  RH  043%=      5-min Rain = 0
KMC5 241624Z 01019KT 06/M06 A302 RMK A01 T00621058  RH  042%=      5-min Rain = 0
KMC5 241625Z 00022KT 06/M06 A302 RMK A01 T00611062  RH  041%=      5-min Rain = 0
KMC5 241626Z 00023KT 06/M07 A302 RMK A01 T00601065  RH  040%=      5-min Rain = 0
KMC5 241627Z 01019KT 06/M06 A302 RMK A01 T00601064  RH  041%=      5-min Rain = 0
KMC5 241628Z 01018KT 06/M06 A302 RMK A01 T00631058  RH  042%=      5-min Rain = 0
KMC5 241629Z 01020KT 07/M06 A302 RMK A01 T00651060  RH  040%=      5-min Rain = 0
KMC5 241630Z 36019KT 06/M06 A302 RMK A01 T00641061  RH  040%=      5-min Rain = 0
KMC5 241631Z 36019KT 06/M06 A302 RMK A01 T00641060  RH  041%=      5-min Rain = 0
KMC5 241632Z 36020KT 06/M06 A302 RMK A01 T00641059  RH  041%=      5-min Rain = 0
KMC5 241633Z 36022KT 07/M06 A302 RMK A01 T00651059  RH  041%=      5-min Rain = 0
KMC5 241634Z 36019KT 07/M06 A302 RMK A01 T00651060  RH  040%=      5-min Rain = 0
KMC5 241635Z 00021KT 07/M06 A302 RMK A01 T00651062  RH  040%=      5-min Rain = 0
KMC5 241636Z 01020KT 07/M06 A302 RMK A01 T00651063  RH  040%=      5-min Rain = 0
KMC5 241637Z 01021KT 06/M06 A302 RMK A01 T00641063  RH  040%=      5-min Rain = 0
KMC5 241638Z 01020KT 06/M06 A302 RMK A01 T00631063  RH  040%=      5-min Rain = 0
KMC5 241639Z 01021G26KT 06/M06 A302 RMK A01 T00631061  RH  041%=      5-min Rain = 0
KMC5 241640Z 00021KT 06/M06 A302 RMK A01 T00641063  RH  040%=      5-min Rain = 0
KMC5 241641Z 00020KT 06/M06 A302 RMK A01 T00631062  RH  040%=      5-min Rain = 0
KMC5 241642Z 00020KT 06/M06 A302 RMK A01 T00641063  RH  040%=      5-min Rain = 0
KMC5 241643Z 00017KT 06/M06 A302 RMK A01 T00641062  RH  040%=      5-min Rain = 0
KMC5 241644Z 00016KT 07/M06 A302 RMK A01 T00671059  RH  040%=      5-min Rain = 0
KMC5 241645Z 01020KT 07/M06 A302 RMK A01 T00691060  RH  039%=      5-min Rain = 0
KMC5 241646Z 01017KT 07/M06 A302 RMK A01 T00681063  RH  039%=      5-min Rain = 0
KMC5 241647Z 01017KT 07/M06 A302 RMK A01 T00671060  RH  040%=      5-min Rain = 0
KMC5 241648Z 00016KT 07/M06 A302 RMK A01 T00691058  RH  040%=      5-min Rain = 0
KMC5 241649Z 01021KT 07/M06 A302 RMK A01 T00701059  RH  039%=      5-min Rain = 0
KMC5 241650Z 01020KT 07/M06 A302 RMK A01 T00701060  RH  039%=      5-min Rain = 0
KMC5 241651Z 01018KT 07/M06 A302 RMK A01 T00711060  RH  039%=      5-min Rain = 0
KMC5 241652Z 00016G21KT 07/M06 A302 RMK A01 T00701059  RH  039%=      5-min Rain = 0
KMC5 241653Z 01016KT 07/M06 A302 RMK A01 T00721058  RH  039%=      5-min Rain = 0
KMC5 241654Z 00015KT 07/M06 A302 RMK A01 T00731058  RH  039%=      5-min Rain = 0
KMC5 241655Z 35017KT 07/M06 A302 RMK A01 T00741057  RH  039%=      5-min Rain = 0
KMC5 241656Z 35019KT 07/M06 A302 RMK A01 T00731058  RH  039%=      5-min Rain = 0
KMC5 241657Z 00019KT 07/M06 A302 RMK A01 T00731056  RH  039%=      5-min Rain = 0
KMC5 241658Z 00018KT 07/M06 A302 RMK A01 T00731059  RH  038%=      5-min Rain = 0
KMC5 241659Z 01019KT 07/M06 A302 RMK A01 T00721058  RH  039%=      5-min Rain = 0
KMC5 241700Z 01020KT 07/M06 A302 RMK A01 T00731059  RH  038%=      5-min Rain = 0
KMC5 241701Z 01018KT 07/M06 A302 RMK A01 T00731059  RH  039%=      5-min Rain = 0
KMC5 241702Z 36017KT 07/M06 A302 RMK A01 T00731057  RH  039%=      5-min Rain = 0
KMC5 241703Z 00019KT 07/M06 A302 RMK A01 T00741057  RH  039%=      5-min Rain = 0
KMC5 241704Z 01019KT 07/M06 A3019 RMK A01 T00741057  RH  039%=      5-min Rain = 0
KMC5 241705Z 01020KT 07/M06 A3019 RMK A01 T00741057  RH  039%=      5-min Rain = 0
KMC5 241706Z 01018G23KT 08/M06 A302 RMK A01 T00751056  RH  039%=      5-min Rain = 0
KMC5 241707Z 01019KT 08/M06 A3019 RMK A01 T00751058  RH  039%=      5-min Rain = 0
KMC5 241708Z 01015KT 07/M06 A3019 RMK A01 T00731057  RH  039%=      5-min Rain = 0
KMC5 241709Z 01018G23KT 08/M05 A3019 RMK A01 T00771052  RH  040%=      5-min Rain = 0
KMC5 241710Z 01019KT 08/M06 A3019 RMK A01 T00791057  RH  037%=      5-min Rain = 0
KMC5 241711Z 01020KT 08/M06 A3019 RMK A01 T00761059  RH  038%=      5-min Rain = 0
KMC5 241712Z 01019KT 08/M06 A3019 RMK A01 T00751060  RH  038%=      5-min Rain = 0
KMC5 241713Z 00015KT 08/M05 A3019 RMK A01 T00751054  RH  040%=      5-min Rain = 0
KMC5 241714Z 01016KT 08/M05 A3019 RMK A01 T00801052  RH  039%=      5-min Rain = 0
KMC5 241715Z 01019KT 08/M06 A3019 RMK A01 T00811056  RH  037%=      5-min Rain = 0
KMC5 241716Z 02018KT 08/M06 A3019 RMK A01 T00801057  RH  037%=      5-min Rain = 0
KMC5 241717Z 02019KT 08/M06 A3019 RMK A01 T00801057  RH  037%=      5-min Rain = 0
KMC5 241718Z 02016G21KT 08/M06 A3019 RMK A01 T00811056  RH  037%=      5-min Rain = 0
KMC5 241719Z 01018KT 08/M06 A3019 RMK A01 T00821055  RH  038%=      5-min Rain = 0
KMC5 241720Z 01018KT 08/M06 A3019 RMK A01 T00811058  RH  037%=      5-min Rain = 0
KMC5 241721Z 01019KT 08/M06 A3019 RMK A01 T00791060  RH  037%=      5-min Rain = 0
KMC5 241722Z 01018KT 08/M06 A302 RMK A01 T00781059  RH  037%=      5-min Rain = 0
KMC5 241723Z 00016KT 08/M06 A302 RMK A01 T00791057  RH  038%=      5-min Rain = 0
KMC5 241724Z 36015KT 08/M06 A302 RMK A01 T00811056  RH  037%=      5-min Rain = 0
KMC5 241725Z 35017KT 08/M06 A302 RMK A01 T00811056  RH  037%=      5-min Rain = 0
KMC5 241726Z 00015KT 08/M06 A302 RMK A01 T00811057  RH  037%=      5-min Rain = 0
KMC5 241727Z 00017KT 08/M06 A302 RMK A01 T00791056  RH  038%=      5-min Rain = 0
KMC5 241728Z 01015KT 08/M06 A302 RMK A01 T00811055  RH  038%=      5-min Rain = 0
KMC5 241729Z 36016KT 08/M06 A302 RMK A01 T00831055  RH  037%=      5-min Rain = 0
KMC5 241730Z 36018KT 08/M06 A302 RMK A01 T00831056  RH  037%=      5-min Rain = 0
KMC5 241731Z 01017KT 08/M06 A302 RMK A01 T00831061  RH  036%=      5-min Rain = 0
KMC5 241732Z 01015KT 08/M06 A302 RMK A01 T00821060  RH  036%=      5-min Rain = 0
KMC5 241733Z 00014KT 08/M06 A302 RMK A01 T00831057  RH  037%=      5-min Rain = 0
KMC5 241734Z 01013KT 09/M05 A302 RMK A01 T00861054  RH  037%=      5-min Rain = 0
KMC5 241735Z 00014KT 09/M05 A302 RMK A01 T00891053  RH  036%=      5-min Rain = 0
KMC5 241736Z 01014KT 09/M06 A302 RMK A01 T00871057  RH  036%=      5-min Rain = 0
KMC5 241737Z 01014KT 08/M06 A302 RMK A01 T00841057  RH  036%=      5-min Rain = 0
KMC5 241738Z 36016KT 09/M06 A302 RMK A01 T00851055  RH  037%=      5-min Rain = 0
KMC5 241739Z 35016KT 09/M06 A302 RMK A01 T00861055  RH  036%=      5-min Rain = 0
KMC5 241740Z 36017KT 09/M06 A302 RMK A01 T00871056  RH  036%=      5-min Rain = 0
KMC5 241741Z 36012KT 09/M06 A302 RMK A01 T00861056  RH  036%=      5-min Rain = 0
KMC5 241742Z 02015KT 09/M05 A302 RMK A01 T00881053  RH  036%=      5-min Rain = 0
KMC5 241743Z 36014KT 09/M06 A3021 RMK A01 T00891056  RH  035%=      5-min Rain = 0
KMC5 241744Z 01016KT 09/M05 A3021 RMK A01 T00891054  RH  036%=      5-min Rain = 0
KMC5 241745Z 01014KT 09/M06 A3021 RMK A01 T00891058  RH  035%=      5-min Rain = 0
KMC5 241746Z 01013KT 09/M06 A3021 RMK A01 T00871057  RH  036%=      5-min Rain = 0
KMC5 241747Z 01015KT 09/M06 A3021 RMK A01 T00881056  RH  036%=      5-min Rain = 0
KMC5 241748Z 01014KT 09/M06 A3021 RMK A01 T00901058  RH  035%=      5-min Rain = 0
KMC5 241749Z 00014KT 09/M06 A3021 RMK A01 T00891056  RH  035%=      5-min Rain = 0
KMC5 241750Z 01011KT 09/M06 A3021 RMK A01 T00891056  RH  036%=      5-min Rain = 0
KMC5 241751Z 01015KT 09/M06 A3021 RMK A01 T00891056  RH  035%=      5-min Rain = 0
KMC5 241752Z 01016KT 09/M06 A302 RMK A01 T00881058  RH  035%=      5-min Rain = 0
KMC5 241753Z 02015KT 09/M06 A302 RMK A01 T00891058  RH  035%=      5-min Rain = 0
KMC5 241754Z 02015KT 09/M06 A302 RMK A01 T00901057  RH  035%=      5-min Rain = 0
KMC5 241755Z 01013KT 09/M06 A302 RMK A01 T00921056  RH  035%=      5-min Rain = 0
KMC5 241756Z 01011KT 09/M06 A302 RMK A01 T00911056  RH  035%=      5-min Rain = 0
KMC5 241757Z 00014KT 09/M05 A302 RMK A01 T00911054  RH  035%=      5-min Rain = 0
KMC5 241758Z 01015KT 09/M05 A302 RMK A01 T00921054  RH  035%=      5-min Rain = 0
KMC5 241759Z 00018KT 09/M06 A302 RMK A01 T00921057  RH  034%=      5-min Rain = 0
KMC5 241800Z 00016KT 09/M06 A302 RMK A01 T00891057  RH  035%=      5-min Rain = 0
KMC5 241801Z 00013KT 09/M06 A302 RMK A01 T00881056  RH  036%=      5-min Rain = 0
KMC5 241802Z 00011KT 09/M06 A302 RMK A01 T00871056  RH  036%=      5-min Rain = 0
KMC5 241803Z 01010KT 09/M05 A302 RMK A01 T00901051  RH  037%=      5-min Rain = 0
KMC5 241804Z 01015KT 10/M05 A302 RMK A01 T00971052  RH  035%=      5-min Rain = 0
KMC5 241805Z 01012KT 10/M06 A302 RMK A01 T00951057  RH  034%=      5-min Rain = 0
KMC5 241806Z 02010KT 09/M06 A302 RMK A01 T00931055  RH  035%=      5-min Rain = 0
KMC5 241807Z 02013KT 10/M06 A302 RMK A01 T00961055  RH  034%=      5-min Rain = 0
KMC5 241808Z 01012KT 10/M06 A302 RMK A01 T00961057  RH  033%=      5-min Rain = 0
KMC5 241809Z 01014KT 10/M06 A302 RMK A01 T00961058  RH  033%=      5-min Rain = 0
KMC5 241810Z 01013KT 09/M06 A302 RMK A01 T00941060  RH  033%=      5-min Rain = 0
KMC5 241811Z 36011KT 09/M06 A302 RMK A01 T00931060  RH  033%=      5-min Rain = 0
KMC5 241812Z 00014KT 09/M06 A302 RMK A01 T00941062  RH  033%=      5-min Rain = 0
KMC5 241813Z 36014KT 10/M06 A302 RMK A01 T00951064  RH  032%=      5-min Rain = 0
KMC5 241814Z 02017KT 10/M07 A302 RMK A01 T00961065  RH  032%=      5-min Rain = 0
KMC5 241815Z 02012KT 09/M07 A302 RMK A01 T00941065  RH  032%=      5-min Rain = 0
KMC5 241816Z 02010KT 10/M06 A302 RMK A01 T00951060  RH  033%=      5-min Rain = 0
KMC5 241817Z 02010KT 10/M06 A302 RMK A01 T00981056  RH  033%=      5-min Rain = 0
KMC5 241818Z 02015KT 10/M06 A302 RMK A01 T01031055  RH  033%=      5-min Rain = 0
KMC5 241819Z 01016KT 10/M06 A302 RMK A01 T01041062  RH  031%=      5-min Rain = 0
KMC5 241820Z 02013KT 10/M06 A302 RMK A01 T00991063  RH  031%=      5-min Rain = 0
KMC5 241821Z 01011KT 10/M06 A302 RMK A01 T00971061  RH  032%=      5-min Rain = 0
KMC5 241822Z 03014KT 10/M06 A302 RMK A01 T00991059  RH  032%=      5-min Rain = 0
KMC5 241823Z 03012KT 10/M06 A302 RMK A01 T01001060  RH  032%=      5-min Rain = 0
KMC5 241824Z 03010KT 10/M06 A302 RMK A01 T00981061  RH  032%=      5-min Rain = 0
KMC5 241825Z 01012KT 10/M06 A302 RMK A01 T00981058  RH  033%=      5-min Rain = 0
KMC5 241826Z 02012KT 10/M06 A302 RMK A01 T00991057  RH  033%=      5-min Rain = 0
KMC5 241827Z 01012KT 10/M06 A302 RMK A01 T00991060  RH  032%=      5-min Rain = 0
KMC5 241828Z 00014KT 10/M06 A302 RMK A01 T01011057  RH  032%=      5-min Rain = 0
KMC5 241829Z 00012KT 10/M06 A302 RMK A01 T01021060  RH  031%=      5-min Rain = 0
KMC5 241830Z 00012KT 10/M06 A302 RMK A01 T01001061  RH  031%=      5-min Rain = 0
KMC5 241831Z 01012KT 10/M06 A302 RMK A01 T00991059  RH  032%=      5-min Rain = 0
KMC5 241832Z 02015KT 10/M06 A302 RMK A01 T01011062  RH  031%=      5-min Rain = 0
KMC5 241833Z 02013KT 10/M07 A302 RMK A01 T01021065  RH  030%=      5-min Rain = 0
KMC5 241834Z 02012KT 10/M07 A302 RMK A01 T01021068  RH  030%=      5-min Rain = 0
KMC5 241835Z 03010KT 10/M07 A302 RMK A01 T01021068  RH  030%=      5-min Rain = 0
KMC5 241836Z 00008KT 10/M06 A302 RMK A01 T01021064  RH  031%=      5-min Rain = 0
KMC5 241837Z 35014KT 10/M06 A302 RMK A01 T01041059  RH  031%=      5-min Rain = 0
KMC5 241838Z 36010KT 10/M06 A302 RMK A01 T01001061  RH  032%=      5-min Rain = 0
KMC5 241839Z 01007KT 10/M06 A302 RMK A01 T01011058  RH  032%=      5-min Rain = 0
KMC5 241840Z 02013KT 10/M06 A3019 RMK A01 T01021061  RH  031%=      5-min Rain = 0
KMC5 241841Z 02011KT 10/M06 A3019 RMK A01 T01041063  RH  030%=      5-min Rain = 0
KMC5 241842Z 04009KT 11/M06 A3019 RMK A01 T01061062  RH  030%=      5-min Rain = 0
KMC5 241843Z 03009KT 10/M07 A3019 RMK A01 T01041065  RH  030%=      5-min Rain = 0
KMC5 241844Z 01010KT 11/M06 A3019 RMK A01 T01051058  RH  031%=      5-min Rain = 0
KMC5 241845Z 00014KT 11/M06 A3019 RMK A01 T01081059  RH  031%=      5-min Rain = 0
KMC5 241846Z 01015KT 11/M06 A3019 RMK A01 T01051062  RH  030%=      5-min Rain = 0
KMC5 241847Z 01015KT 10/M06 A3019 RMK A01 T01021063  RH  031%=      5-min Rain = 0
KMC5 241848Z 00013KT 10/M06 A3019 RMK A01 T01021064  RH  030%=      5-min Rain = 0
KMC5 241849Z 01013KT 10/M07 A3019 RMK A01 T01011066  RH  030%=      5-min Rain = 0
KMC5 241850Z 02016KT 10/M06 A3019 RMK A01 T01021063  RH  031%=      5-min Rain = 0
KMC5 241851Z 02014KT 10/M06 A3019 RMK A01 T01041064  RH  030%=      5-min Rain = 0
KMC5 241852Z 03010KT 11/M07 A3019 RMK A01 T01051067  RH  029%=      5-min Rain = 0
KMC5 241853Z 03009KT 10/M07 A3019 RMK A01 T01041066  RH  030%=      5-min Rain = 0
KMC5 241854Z 02012KT 11/M07 A3019 RMK A01 T01061066  RH  029%=      5-min Rain = 0
KMC5 241855Z 01009KT 10/M07 A3019 RMK A01 T01041067  RH  029%=      5-min Rain = 0
KMC5 241856Z 02012KT 10/M07 A3018 RMK A01 T01021068  RH  030%=      5-min Rain = 0
KMC5 241857Z 01012KT 10/M07 A3018 RMK A01 T01011067  RH  030%=      5-min Rain = 0
KMC5 241858Z 01011KT 10/M07 A3018 RMK A01 T01041069  RH  029%=      5-min Rain = 0
KMC5 241859Z 03009KT 10/M07 A3018 RMK A01 T01021071  RH  029%=      5-min Rain = 0
KMC5 241900Z 03008KT 10/M07 A3018 RMK A01 T00991072  RH  029%=      5-min Rain = 0
KMC5 241901Z 03010KT 10/M07 A3018 RMK A01 T00991067  RH  030%=      5-min Rain = 0
KMC5 241902Z 03015KT 10/M07 A3018 RMK A01 T01041066  RH  030%=      5-min Rain = 0
KMC5 241903Z 03012KT 11/M07 A3018 RMK A01 T01071071  RH  028%=      5-min Rain = 0
KMC5 241904Z 02011KT 11/M07 A3018 RMK A01 T01061072  RH  028%=      5-min Rain = 0
KMC5 241905Z 01011KT 11/M08 A3018 RMK A01 T01061075  RH  027%=      5-min Rain = 0
KMC5 241906Z 02010KT 11/M08 A3018 RMK A01 T01051076  RH  027%=      5-min Rain = 0
KMC5 241907Z 01010KT 10/M07 A3018 RMK A01 T01041071  RH  028%=      5-min Rain = 0
KMC5 241908Z 03010KT 10/M07 A3018 RMK A01 T01041073  RH  028%=      5-min Rain = 0
KMC5 241909Z 03015KT 10/M07 A3018 RMK A01 T01041074  RH  028%=      5-min Rain = 0
KMC5 241910Z 02010G15KT 11/M08 A3018 RMK A01 T01051081  RH  026%=      5-min Rain = 0
KMC5 241911Z 03009KT 10/M08 A3017 RMK A01 T01021077  RH  028%=      5-min Rain = 0
KMC5 241912Z 02011KT 11/M07 A3017 RMK A01 T01061070  RH  028%=      5-min Rain = 0
KMC5 241913Z 03014KT 11/M07 A3017 RMK A01 T01111065  RH  029%=      5-min Rain = 0
KMC5 241914Z 03012KT 11/M07 A3017 RMK A01 T01131074  RH  026%=      5-min Rain = 0
KMC5 241915Z 01010KT 11/M08 A3017 RMK A01 T01091081  RH  025%=      5-min Rain = 0
KMC5 241916Z 02005KT 11/M08 A3017 RMK A01 T01071083  RH  026%=      5-min Rain = 0
KMC5 241917Z 03008KT 11/M09 A3017 RMK A01 T01051087  RH  025%=      5-min Rain = 0
KMC5 241918Z 01012G17KT 11/M08 A3017 RMK A01 T01051078  RH  027%=      5-min Rain = 0
KMC5 241919Z 01008G13KT 11/M07 A3017 RMK A01 T01051074  RH  028%=      5-min Rain = 0
KMC5 241920Z 36004KT 11/M08 A3017 RMK A01 T01051075  RH  027%=      5-min Rain = 0
KMC5 241921Z 36006KT 11/M07 A3017 RMK A01 T01051072  RH  028%=      5-min Rain = 0
KMC5 241922Z 01015KT 11/M07 A3017 RMK A01 T01081070  RH  028%=      5-min Rain = 0
KMC5 241923Z 01015KT 11/M08 A3017 RMK A01 T01101076  RH  026%=      5-min Rain = 0
KMC5 241924Z 01014KT 11/M08 A3017 RMK A01 T01081077  RH  027%=      5-min Rain = 0
KMC5 241925Z 02013KT 11/M08 A3017 RMK A01 T01081078  RH  026%=      5-min Rain = 0
KMC5 241926Z 03010KT 11/M08 A3017 RMK A01 T01081077  RH  026%=      5-min Rain = 0
KMC5 241927Z 03008KT 11/M08 A3017 RMK A01 T01061081  RH  026%=      5-min Rain = 0
KMC5 241928Z 04010KT 11/M08 A3017 RMK A01 T01071075  RH  027%=      5-min Rain = 0
KMC5 241929Z 03012KT 11/M07 A3017 RMK A01 T01091074  RH  027%=      5-min Rain = 0
KMC5 241930Z 03010KT 11/M07 A3017 RMK A01 T01101070  RH  027%=      5-min Rain = 0
KMC5 241931Z 02011KT 11/M07 A3017 RMK A01 T01121070  RH  027%=      5-min Rain = 0
KMC5 241932Z 01008KT 11/M07 A3017 RMK A01 T01111074  RH  027%=      5-min Rain = 0
KMC5 241933Z 01009G14KT 11/M08 A3017 RMK A01 T01101075  RH  026%=      5-min Rain = 0
KMC5 241934Z 04014KT 11/M08 A3017 RMK A01 T01111082  RH  025%=      5-min Rain = 0
KMC5 241935Z 04013KT 11/M08 A3017 RMK A01 T01121084  RH  025%=      5-min Rain = 0
KMC5 241936Z 05010KT 11/M09 A3017 RMK A01 T01121087  RH  024%=      5-min Rain = 0
KMC5 241937Z 04009KT 11/M09 A3017 RMK A01 T01091090  RH  024%=      5-min Rain = 0
KMC5 241938Z 06007KT 11/M09 A3017 RMK A01 T01071091  RH  024%=      5-min Rain = 0
KMC5 241939Z 05005KT 11/M09 A3017 RMK A01 T01061090  RH  024%=      5-min Rain = 0
KMC5 241940Z 06003KT 11/M09 A3017 RMK A01 T01061091  RH  024%=      5-min Rain = 0
KMC5 241941Z 05004KT 11/M09 A3017 RMK A01 T01061089  RH  024%=      5-min Rain = 0
KMC5 241942Z 04008KT 11/M08 A3017 RMK A01 T01101081  RH  025%=      5-min Rain = 0
KMC5 241943Z 03013KT 11/M08 A3017 RMK A01 T01121081  RH  025%=      5-min Rain = 0
KMC5 241944Z 02015KT 11/M09 A3017 RMK A01 T01141089  RH  023%=      5-min Rain = 0
KMC5 241945Z 03015KT 11/M09 A3017 RMK A01 T01141093  RH  022%=      5-min Rain = 0
KMC5 241946Z 03014KT 12/M09 A3017 RMK A01 T01161087  RH  023%=      5-min Rain = 0
KMC5 241947Z 04009KT 12/M10 A3017 RMK A01 T01151096  RH  022%=      5-min Rain = 0
KMC5 241948Z 06011KT 11/M09 A3017 RMK A01 T01121091  RH  023%=      5-min Rain = 0
KMC5 241949Z 07008KT 11/M09 A3017 RMK A01 T01111092  RH  023%=      5-min Rain = 0
KMC5 241950Z 08007KT 11/M09 A3017 RMK A01 T01111087  RH  024%=      5-min Rain = 0
KMC5 241951Z 08006KT 11/M09 A3017 RMK A01 T01131087  RH  024%=      5-min Rain = 0
KMC5 241952Z 04007KT 11/M08 A3017 RMK A01 T01131084  RH  024%=      5-min Rain = 0
KMC5 241953Z 02012G17KT 11/M08 A3017 RMK A01 T01141082  RH  024%=      5-min Rain = 0
KMC5 241954Z 01012KT 12/M09 A3017 RMK A01 T01161087  RH  023%=      5-min Rain = 0
KMC5 241955Z 03011KT 12/M08 A3017 RMK A01 T01151084  RH  024%=      5-min Rain = 0
KMC5 241956Z 05009KT 12/M08 A3017 RMK A01 T01171084  RH  024%=      5-min Rain = 0
KMC5 241957Z 06007KT 12/M09 A3017 RMK A01 T01151087  RH  024%=      5-min Rain = 0
KMC5 241958Z 06005KT 11/M09 A3017 RMK A01 T01111087  RH  024%=      5-min Rain = 0
KMC5 241959Z 05006KT 11/M09 A3017 RMK A01 T01111086  RH  024%=      5-min Rain = 0
KMC5 242000Z 04008KT 11/M08 A3016 RMK A01 T01131083  RH  024%=      5-min Rain = 0
KMC5 242001Z 04012KT 12/M08 A3016 RMK A01 T01161084  RH  024%=      5-min Rain = 0
KMC5 242002Z 03010KT 12/M09 A3016 RMK A01 T01161088  RH  023%=      5-min Rain = 0
KMC5 242003Z 01008KT 12/M09 A3016 RMK A01 T01171085  RH  024%=      5-min Rain = 0
KMC5 242004Z 02012KT 12/M09 A3016 RMK A01 T01211087  RH  023%=      5-min Rain = 0
KMC5 242005Z 02011KT 12/M09 A3016 RMK A01 T01191094  RH  022%=      5-min Rain = 0
KMC5 242006Z 02008KT 12/M09 A3016 RMK A01 T01161094  RH  022%=      5-min Rain = 0
KMC5 242007Z 03010KT 11/M09 A3016 RMK A01 T01141093  RH  022%=      5-min Rain = 0
KMC5 242008Z 01011KT 11/M09 A3016 RMK A01 T01141086  RH  024%=      5-min Rain = 0
KMC5 242009Z 01009KT 12/M08 A3016 RMK A01 T01151084  RH  024%=      5-min Rain = 0
KMC5 242010Z 02007KT 12/M09 A3016 RMK A01 T01151086  RH  024%=      5-min Rain = 0
KMC5 242011Z 03006KT 12/M08 A3016 RMK A01 T01161083  RH  024%=      5-min Rain = 0
KMC5 242012Z 03003KT 12/M08 A3016 RMK A01 T01191078  RH  024%=      5-min Rain = 0
KMC5 242013Z 06008KT 12/M09 A3016 RMK A01 T01201085  RH  023%=      5-min Rain = 0
KMC5 242014Z 04008KT 12/M09 A3016 RMK A01 T01191088  RH  023%=      5-min Rain = 0
KMC5 242015Z 05014KT 12/M09 A3016 RMK A01 T01181093  RH  022%=      5-min Rain = 0
KMC5 242016Z 05015KT 12/M10 A3016 RMK A01 T01181095  RH  022%=      5-min Rain = 0
KMC5 242017Z 05014KT 12/M10 A3016 RMK A01 T01191097  RH  021%=      5-min Rain = 0
KMC5 242018Z 04011KT 12/M10 A3016 RMK A01 T01161097  RH  022%=      5-min Rain = 0
KMC5 242019Z 01011KT 12/M10 A3016 RMK A01 T01151095  RH  022%=      5-min Rain = 0
KMC5 242020Z 02008KT 12/M09 A3016 RMK A01 T01171093  RH  022%=      5-min Rain = 0
KMC5 242021Z 03004KT 12/M09 A3016 RMK A01 T01181094  RH  022%=      5-min Rain = 0
KMC5 242022Z 05002KT 12/M09 A3016 RMK A01 T01191094  RH  022%=      5-min Rain = 0
KMC5 242023Z 03005KT 12/M09 A3016 RMK A01 T01201091  RH  022%=      5-min Rain = 0
KMC5 242024Z 04004KT 12/M09 A3016 RMK A01 T01191091  RH  022%=      5-min Rain = 0
KMC5 242025Z 05010G15KT 12/M09 A3016 RMK A01 T01211091  RH  022%=      5-min Rain = 0
KMC5 242026Z 05013KT 12/M10 A3016 RMK A01 T01211100  RH  020%=      5-min Rain = 0
KMC5 242027Z 05011KT 12/M10 A3016 RMK A01 T01181101  RH  021%=      5-min Rain = 0
KMC5 242028Z 03011KT 12/M11 A3016 RMK A01 T01161109  RH  020%=      5-min Rain = 0
KMC5 242029Z 05012KT 12/M10 A3016 RMK A01 T01161103  RH  020%=      5-min Rain = 0
KMC5 242030Z 06011KT 12/M10 A3016 RMK A01 T01171102  RH  021%=      5-min Rain = 0
KMC5 242031Z 07006KT 12/M10 A3016 RMK A01 T01161102  RH  021%=      5-min Rain = 0
KMC5 242032Z 06006KT 12/M10 A3016 RMK A01 T01161099  RH  021%=      5-min Rain = 0
KMC5 242033Z 05004KT 12/M11 A3016 RMK A01 T01161108  RH  020%=      5-min Rain = 0
KMC5 242034Z 07007KT 11/M10 A3016 RMK A01 T01141100  RH  021%=      5-min Rain = 0
KMC5 242035Z 06006KT 12/M10 A3016 RMK A01 T01161097  RH  022%=      5-min Rain = 0
KMC5 242036Z 07005KT 12/M09 A3016 RMK A01 T01161094  RH  022%=      5-min Rain = 0
KMC5 242037Z 06009G14KT 12/M10 A3016 RMK A01 T01161095  RH  022%=      5-min Rain = 0
KMC5 242038Z 06013KT 12/M09 A3016 RMK A01 T01171093  RH  022%=      5-min Rain = 0
KMC5 242039Z 05012KT 12/M09 A3016 RMK A01 T01211091  RH  022%=      5-min Rain = 0
KMC5 242040Z 06009KT 12/M10 A3016 RMK A01 T01191098  RH  021%=      5-min Rain = 0
KMC5 242041Z 04007KT 12/M10 A3016 RMK A01 T01151100  RH  021%=      5-min Rain = 0
KMC5 242042Z 04006KT 12/M10 A3016 RMK A01 T01151097  RH  022%=      5-min Rain = 0
KMC5 242043Z 04007KT 12/M09 A3016 RMK A01 T01161093  RH  022%=      5-min Rain = 0
KMC5 242044Z 06007KT 12/M10 A3016 RMK A01 T01191095  RH  021%=      5-min Rain = 0
KMC5 242045Z 02007G15KT 12/M09 A3016 RMK A01 T01191091  RH  022%=      5-min Rain = 0
KMC5 242046Z 03013KT 12/M09 A3015 RMK A01 T01241093  RH  021%=      5-min Rain = 0
KMC5 242047Z 02011KT 12/M10 A3015 RMK A01 T01221102  RH  020%=      5-min Rain = 0
KMC5 242048Z 03013KT 12/M09 A3015 RMK A01 T01241094  RH  021%=      5-min Rain = 0
KMC5 242049Z 05012KT 13/M10 A3016 RMK A01 T01251098  RH  020%=      5-min Rain = 0
KMC5 242050Z 05011KT 12/M10 A3015 RMK A01 T01211104  RH  020%=      5-min Rain = 0
KMC5 242051Z 05009KT 12/M10 A3016 RMK A01 T01171104  RH  020%=      5-min Rain = 0
KMC5 242052Z 04008KT 12/M10 A3015 RMK A01 T01151103  RH  021%=      5-min Rain = 0
KMC5 242053Z 03006KT 12/M10 A3015 RMK A01 T01151104  RH  020%=      5-min Rain = 0
KMC5 242054Z 02004KT 11/M10 A3015 RMK A01 T01141104  RH  021%=      5-min Rain = 0
KMC5 242055Z 05007KT 12/M10 A3015 RMK A01 T01161097  RH  021%=      5-min Rain = 0
KMC5 242056Z 05010KT 12/M10 A3015 RMK A01 T01181102  RH  021%=      5-min Rain = 0
KMC5 242057Z 05012KT 12/M10 A3015 RMK A01 T01181101  RH  021%=      5-min Rain = 0
KMC5 242058Z 06011KT 12/M10 A3015 RMK A01 T01181099  RH  021%=      5-min Rain = 0
KMC5 242059Z 08013KT 12/M10 A3015 RMK A01 T01201101  RH  020%=      5-min Rain = 0
KMC5 242100Z 08010KT 12/M10 A3015 RMK A01 T01211096  RH  021%=      5-min Rain = 0
KMC5 242101Z 07010KT 12/M10 A3015 RMK A01 T01221096  RH  021%=      5-min Rain = 0
KMC5 242102Z 07009KT 12/M09 A3015 RMK A01 T01221094  RH  021%=      5-min Rain = 0
KMC5 242103Z 06007KT 12/M10 A3015 RMK A01 T01211096  RH  021%=      5-min Rain = 0
KMC5 242104Z 05007KT 12/M10 A3015 RMK A01 T01191097  RH  021%=      5-min Rain = 0
KMC5 242105Z 06010KT 12/M10 A3015 RMK A01 T01181097  RH  021%=      5-min Rain = 0
KMC5 242106Z 04013KT 12/M10 A3015 RMK A01 T01191098  RH  021%=      5-min Rain = 0
KMC5 242107Z 03013KT 12/M10 A3015 RMK A01 T01211103  RH  020%=      5-min Rain = 0
KMC5 242108Z 04014KT 12/M10 A3015 RMK A01 T01211103  RH  020%=      5-min Rain = 0
KMC5 242109Z 03011KT 12/M10 A3015 RMK A01 T01211104  RH  020%=      5-min Rain = 0
KMC5 242110Z 05013KT 12/M10 A3015 RMK A01 T01211100  RH  020%=      5-min Rain = 0
KMC5 242111Z 04015KT 12/M10 A3015 RMK A01 T01221101  RH  020%=      5-min Rain = 0
KMC5 242112Z 04011KT 12/M10 A3015 RMK A01 T01191102  RH  020%=      5-min Rain = 0
KMC5 242113Z 05010KT 12/M10 A3015 RMK A01 T01191101  RH  020%=      5-min Rain = 0
KMC5 242114Z 06009KT 12/M10 A3015 RMK A01 T01181102  RH  020%=      5-min Rain = 0
KMC5 242115Z 06008KT 12/M10 A3015 RMK A01 T01191098  RH  021%=      5-min Rain = 0
KMC5 242116Z 07007KT 12/M10 A3015 RMK A01 T01211100  RH  020%=      5-min Rain = 0
KMC5 242117Z 07007KT 12/M10 A3015 RMK A01 T01211098  RH  021%=      5-min Rain = 0
KMC5 242118Z 05007KT 12/M10 A3015 RMK A01 T01211099  RH  020%=      5-min Rain = 0
KMC5 242119Z 02009KT 12/M10 A3015 RMK A01 T01191099  RH  021%=      5-min Rain = 0
KMC5 242120Z 02006KT 12/M10 A3015 RMK A01 T01191100  RH  021%=      5-min Rain = 0
KMC5 242121Z 04006KT 12/M10 A3015 RMK A01 T01201098  RH  021%=      5-min Rain = 0
KMC5 242122Z 04012KT 12/M10 A3015 RMK A01 T01211096  RH  021%=      5-min Rain = 0
KMC5 242123Z 05014KT 12/M10 A3015 RMK A01 T01231098  RH  020%=      5-min Rain = 0
KMC5 242124Z 04013KT 12/M10 A3015 RMK A01 T01211102  RH  020%=      5-min Rain = 0
KMC5 242125Z 04012KT 12/M10 A3015 RMK A01 T01191101  RH  020%=      5-min Rain = 0
KMC5 242126Z 07011KT 12/M10 A3015 RMK A01 T01181100  RH  021%=      5-min Rain = 0
KMC5 242127Z 06010KT 12/M10 A3015 RMK A01 T01201097  RH  021%=      5-min Rain = 0
KMC5 242128Z 05010KT 12/M10 A3015 RMK A01 T01221097  RH  021%=      5-min Rain = 0
KMC5 242129Z 04013KT 12/M10 A3015 RMK A01 T01231097  RH  021%=      5-min Rain = 0
KMC5 242130Z 03009KT 12/M10 A3015 RMK A01 T01231098  RH  020%=      5-min Rain = 0
KMC5 242131Z 04010KT 12/M10 A3015 RMK A01 T01221100  RH  020%=      5-min Rain = 0
KMC5 242132Z 05008KT 12/M10 A3015 RMK A01 T01201102  RH  020%=      5-min Rain = 0
KMC5 242133Z 06012KT 12/M10 A3015 RMK A01 T01191101  RH  020%=      5-min Rain = 0
KMC5 242134Z 06011KT 12/M10 A3015 RMK A01 T01201103  RH  020%=      5-min Rain = 0
KMC5 242135Z 05010KT 12/M10 A3015 RMK A01 T01201101  RH  020%=      5-min Rain = 0
KMC5 242136Z 05012KT 12/M10 A3015 RMK A01 T01201104  RH  020%=      5-min Rain = 0
KMC5 242137Z 04013KT 12/M10 A3015 RMK A01 T01201101  RH  020%=      5-min Rain = 0
KMC5 242138Z 06014KT 12/M10 A3015 RMK A01 T01211103  RH  020%=      5-min Rain = 0
KMC5 242139Z 06011KT 12/M10 A3015 RMK A01 T01211104  RH  020%=      5-min Rain = 0
KMC5 242140Z 05012KT 12/M10 A3015 RMK A01 T01211103  RH  020%=      5-min Rain = 0
KMC5 242141Z 06013KT 12/M10 A3015 RMK A01 T01231099  RH  020%=      5-min Rain = 0
KMC5 242142Z 05012KT 12/M11 A3015 RMK A01 T01221106  RH  019%=      5-min Rain = 0
KMC5 242143Z 06011KT 12/M11 A3015 RMK A01 T01191111  RH  019%=      5-min Rain = 0
KMC5 242144Z 05009KT 12/M11 A3015 RMK A01 T01171112  RH  019%=      5-min Rain = 0
KMC5 242145Z 06009G15KT 12/M10 A3015 RMK A01 T01171103  RH  020%=      5-min Rain = 0
KMC5 242146Z 05013KT 12/M10 A3015 RMK A01 T01221099  RH  020%=      5-min Rain = 0
KMC5 242147Z 04012KT 12/M11 A3015 RMK A01 T01201105  RH  020%=      5-min Rain = 0
KMC5 242148Z 05010KT 12/M11 A3015 RMK A01 T01181106  RH  020%=      5-min Rain = 0
KMC5 242149Z 05007KT 12/M11 A3015 RMK A01 T01171110  RH  019%=      5-min Rain = 0
KMC5 242150Z 06008KT 12/M11 A3015 RMK A01 T01151108  RH  020%=      5-min Rain = 0
KMC5 242151Z 06009KT 12/M11 A3015 RMK A01 T01151105  RH  020%=      5-min Rain = 0
KMC5 242152Z 06006KT 12/M10 A3015 RMK A01 T01151104  RH  020%=      5-min Rain = 0
KMC5 242153Z 04007KT 12/M10 A3015 RMK A01 T01161103  RH  021%=      5-min Rain = 0
KMC5 242154Z 03010KT 12/M10 A3015 RMK A01 T01161100  RH  021%=      5-min Rain = 0
KMC5 242155Z 03009KT 12/M09 A3015 RMK A01 T01191094  RH  022%=      5-min Rain = 0
KMC5 242156Z 03012KT 12/M10 A3015 RMK A01 T01231096  RH  021%=      5-min Rain = 0
KMC5 242157Z 02010KT 12/M10 A3015 RMK A01 T01221101  RH  020%=      5-min Rain = 0
KMC5 242158Z 03009KT 12/M10 A3015 RMK A01 T01191103  RH  020%=      5-min Rain = 0
KMC5 242159Z 05009KT 12/M10 A3015 RMK A01 T01191097  RH  021%=      5-min Rain = 0
KMC5 242200Z 04008KT 12/M10 A3015 RMK A01 T01221096  RH  021%=      5-min Rain = 0
KMC5 242201Z 03007KT 12/M10 A3015 RMK A01 T01231097  RH  020%=      5-min Rain = 0
KMC5 242202Z 03012KT 12/M10 A3015 RMK A01 T01231099  RH  020%=      5-min Rain = 0
KMC5 242203Z 05011KT 12/M10 A3015 RMK A01 T01221101  RH  020%=      5-min Rain = 0
KMC5 242204Z 06011KT 12/M11 A3015 RMK A01 T01201107  RH  019%=      5-min Rain = 0
KMC5 242205Z 05013KT 12/M11 A3015 RMK A01 T01181107  RH  020%=      5-min Rain = 0
KMC5 242206Z 05012KT 12/M10 A3015 RMK A01 T01181103  RH  020%=      5-min Rain = 0
KMC5 242207Z 04015KT 12/M11 A3015 RMK A01 T01181106  RH  020%=      5-min Rain = 0
KMC5 242208Z 03014KT 12/M10 A3015 RMK A01 T01181104  RH  020%=      5-min Rain = 0
KMC5 242209Z 01011KT 12/M11 A3015 RMK A01 T01171105  RH  020%=      5-min Rain = 0
KMC5 242210Z 03010KT 12/M11 A3015 RMK A01 T01161105  RH  020%=      5-min Rain = 0
KMC5 242211Z 04009KT 12/M10 A3015 RMK A01 T01161104  RH  020%=      5-min Rain = 0
KMC5 242212Z 03009KT 12/M10 A3014 RMK A01 T01171102  RH  021%=      5-min Rain = 0
KMC5 242213Z 05015KT 12/M10 A3014 RMK A01 T01181104  RH  020%=      5-min Rain = 0
KMC5 242214Z 08012KT 12/M10 A3014 RMK A01 T01191104  RH  020%=      5-min Rain = 0
KMC5 242215Z 07010KT 12/M11 A3015 RMK A01 T01181109  RH  019%=      5-min Rain = 0
KMC5 242216Z 06012KT 12/M11 A3014 RMK A01 T01181105  RH  020%=      5-min Rain = 0
KMC5 242217Z 06011KT 12/M11 A3015 RMK A01 T01201106  RH  020%=      5-min Rain = 0
KMC5 242218Z 07012KT 12/M11 A3015 RMK A01 T01191105  RH  020%=      5-min Rain = 0
KMC5 242219Z 07010KT 12/M11 A3015 RMK A01 T01181108  RH  020%=      5-min Rain = 0
KMC5 242220Z 06011G16KT 12/M11 A3014 RMK A01 T01171105  RH  020%=      5-min Rain = 0
KMC5 242221Z 05013KT 12/M10 A3014 RMK A01 T01181103  RH  020%=      5-min Rain = 0
KMC5 242222Z 05012KT 12/M10 A3014 RMK A01 T01181104  RH  020%=      5-min Rain = 0
KMC5 242223Z 04010KT 12/M10 A3014 RMK A01 T01171103  RH  020%=      5-min Rain = 0
KMC5 242224Z 04008KT 12/M10 A3015 RMK A01 T01171103  RH  020%=      5-min Rain = 0
KMC5 242225Z 04009KT 12/M10 A3014 RMK A01 T01171102  RH  021%=      5-min Rain = 0
KMC5 242226Z 05010KT 12/M10 A3015 RMK A01 T01171100  RH  021%=      5-min Rain = 0
KMC5 242227Z 04014KT 12/M10 A3014 RMK A01 T01191099  RH  021%=      5-min Rain = 0
KMC5 242228Z 06012KT 12/M10 A3014 RMK A01 T01201098  RH  021%=      5-min Rain = 0
KMC5 242229Z 07013KT 12/M10 A3015 RMK A01 T01201102  RH  020%=      5-min Rain = 0
KMC5 242230Z 06010KT 12/M11 A3015 RMK A01 T01171106  RH  020%=      5-min Rain = 0
KMC5 242231Z 04010KT 12/M10 A3015 RMK A01 T01171102  RH  021%=      5-min Rain = 0
KMC5 242232Z 04011KT 12/M10 A3015 RMK A01 T01191100  RH  021%=      5-min Rain = 0
KMC5 242233Z 05012KT 12/M10 A3014 RMK A01 T01191101  RH  020%=      5-min Rain = 0
KMC5 242234Z 04012KT 12/M11 A3014 RMK A01 T01171105  RH  020%=      5-min Rain = 0
KMC5 242235Z 04009KT 12/M11 A3014 RMK A01 T01161106  RH  020%=      5-min Rain = 0
KMC5 242236Z 03009KT 12/M11 A3014 RMK A01 T01151106  RH  020%=      5-min Rain = 0
KMC5 242237Z 03009KT 12/M10 A3014 RMK A01 T01151104  RH  021%=      5-min Rain = 0
KMC5 242238Z 03008KT 12/M10 A3014 RMK A01 T01151102  RH  021%=      5-min Rain = 0
KMC5 242239Z 03014KT 12/M10 A3014 RMK A01 T01171100  RH  021%=      5-min Rain = 0
KMC5 242240Z 03012KT 12/M10 A3014 RMK A01 T01171104  RH  020%=      5-min Rain = 0
KMC5 242241Z 04012KT 12/M10 A3014 RMK A01 T01151104  RH  020%=      5-min Rain = 0
KMC5 242242Z 04010KT 12/M10 A3014 RMK A01 T01151101  RH  021%=      5-min Rain = 0
KMC5 242243Z 05011KT 12/M10 A3014 RMK A01 T01171100  RH  021%=      5-min Rain = 0
KMC5 242244Z 05014KT 12/M10 A3014 RMK A01 T01171102  RH  021%=      5-min Rain = 0
KMC5 242245Z 06013KT 12/M11 A3014 RMK A01 T01151107  RH  020%=      5-min Rain = 0
KMC5 242246Z 07011KT 11/M11 A3014 RMK A01 T01141107  RH  020%=      5-min Rain = 0
KMC5 242247Z 06013KT 11/M10 A3014 RMK A01 T01141104  RH  021%=      5-min Rain = 0
KMC5 242248Z 07012KT 12/M10 A3014 RMK A01 T01151103  RH  021%=      5-min Rain = 0
KMC5 242249Z 06011KT 12/M11 A3014 RMK A01 T01151105  RH  020%=      5-min Rain = 0
KMC5 242250Z 06011KT 12/M10 A3014 RMK A01 T01161103  RH  021%=      5-min Rain = 0
KMC5 242251Z 06009KT 12/M11 A3014 RMK A01 T01151108  RH  020%=      5-min Rain = 0
KMC5 242252Z 06015KT 11/M11 A3013 RMK A01 T01141106  RH  020%=      5-min Rain = 0
KMC5 242253Z 05012KT 11/M11 A3013 RMK A01 T01131108  RH  020%=      5-min Rain = 0
KMC5 242254Z 05013KT 11/M11 A3013 RMK A01 T01131106  RH  020%=      5-min Rain = 0
KMC5 242255Z 05011KT 11/M11 A3013 RMK A01 T01131109  RH  020%=      5-min Rain = 0
KMC5 242256Z 03012KT 11/M10 A3014 RMK A01 T01131104  RH  021%=      5-min Rain = 0
KMC5 242257Z 03011KT 11/M11 A3014 RMK A01 T01141109  RH  020%=      5-min Rain = 0
KMC5 242258Z 04011KT 11/M11 A3013 RMK A01 T01131111  RH  020%=      5-min Rain = 0
KMC5 242259Z 05011G16KT 11/M11 A3013 RMK A01 T01121108  RH  020%=      5-min Rain = 0
KMC5 242300Z 06012KT 11/M10 A3013 RMK A01 T01141103  RH  021%=      5-min Rain = 0
KMC5 242301Z 05014KT 12/M11 A3013 RMK A01 T01151107  RH  020%=      5-min Rain = 0
KMC5 242302Z 05012KT 11/M10 A3013 RMK A01 T01141104  RH  021%=      5-min Rain = 0
KMC5 242303Z 05013KT 11/M11 A3013 RMK A01 T01141106  RH  020%=      5-min Rain = 0
KMC5 242304Z 05012KT 11/M11 A3014 RMK A01 T01131110  RH  020%=      5-min Rain = 0
KMC5 242305Z 05011KT 11/M11 A3014 RMK A01 T01111108  RH  020%=      5-min Rain = 0
KMC5 242306Z 04010KT 11/M11 A3014 RMK A01 T01121108  RH  020%=      5-min Rain = 0
KMC5 242307Z 04010KT 11/M11 A3014 RMK A01 T01121106  RH  021%=      5-min Rain = 0
KMC5 242308Z 04010KT 11/M11 A3014 RMK A01 T01121105  RH  021%=      5-min Rain = 0
KMC5 242309Z 05011KT 11/M11 A3014 RMK A01 T01131105  RH  021%=      5-min Rain = 0
KMC5 242310Z 05010KT 11/M11 A3014 RMK A01 T01131106  RH  020%=      5-min Rain = 0
KMC5 242311Z 05011KT 11/M11 A3014 RMK A01 T01131107  RH  020%=      5-min Rain = 0
KMC5 242312Z 06009KT 11/M11 A3014 RMK A01 T01121106  RH  021%=      5-min Rain = 0
KMC5 242313Z 07009KT 11/M11 A3014 RMK A01 T01121106  RH  021%=      5-min Rain = 0
KMC5 242314Z 07009KT 11/M11 A3014 RMK A01 T01121106  RH  021%=      5-min Rain = 0
KMC5 242315Z 07011KT 11/M10 A3014 RMK A01 T01121104  RH  021%=      5-min Rain = 0
KMC5 242316Z 07010KT 11/M10 A3014 RMK A01 T01121104  RH  021%=      5-min Rain = 0
KMC5 242317Z 06010KT 11/M10 A3014 RMK A01 T01121102  RH  021%=      5-min Rain = 0
KMC5 242318Z 05011KT 11/M10 A3014 RMK A01 T01121104  RH  021%=      5-min Rain = 0
KMC5 242319Z 05012KT 11/M10 A3014 RMK A01 T01111104  RH  021%=      5-min Rain = 0
KMC5 242320Z 05012KT 11/M10 A3014 RMK A01 T01101104  RH  021%=      5-min Rain = 0
KMC5 242321Z 04014KT 11/M10 A3014 RMK A01 T01101102  RH  022%=      5-min Rain = 0
KMC5 242322Z 04011KT 11/M11 A3014 RMK A01 T01101105  RH  021%=      5-min Rain = 0
KMC5 242323Z 04011KT 11/M10 A3014 RMK A01 T01101104  RH  021%=      5-min Rain = 0
KMC5 242324Z 04011KT 11/M11 A3014 RMK A01 T01091105  RH  021%=      5-min Rain = 0
KMC5 242325Z 04010KT 11/M11 A3014 RMK A01 T01091107  RH  021%=      5-min Rain = 0
KMC5 242326Z 03010KT 11/M11 A3014 RMK A01 T01091106  RH  021%=      5-min Rain = 0
KMC5 242327Z 04012KT 11/M10 A3014 RMK A01 T01091102  RH  022%=      5-min Rain = 0
KMC5 242328Z 05014KT 11/M10 A3014 RMK A01 T01091103  RH  021%=      5-min Rain = 0
KMC5 242329Z 05013KT 11/M11 A3014 RMK A01 T01091106  RH  021%=      5-min Rain = 0
KMC5 242330Z 06012KT 11/M11 A3014 RMK A01 T01081108  RH  021%=      5-min Rain = 0
KMC5 242331Z 05010KT 11/M11 A3014 RMK A01 T01071108  RH  021%=      5-min Rain = 0
KMC5 242332Z 05011KT 11/M11 A3014 RMK A01 T01071109  RH  021%=      5-min Rain = 0
KMC5 242333Z 06010KT 11/M11 A3014 RMK A01 T01081108  RH  021%=      5-min Rain = 0
KMC5 242334Z 06010KT 11/M11 A3014 RMK A01 T01071109  RH  021%=      5-min Rain = 0
KMC5 242335Z 07010KT 11/M11 A3014 RMK A01 T01071111  RH  020%=      5-min Rain = 0
KMC5 242336Z 06009KT 11/M11 A3014 RMK A01 T01071107  RH  021%=      5-min Rain = 0
KMC5 242337Z 05011KT 11/M10 A3014 RMK A01 T01071104  RH  022%=      5-min Rain = 0
KMC5 242338Z 05012KT 11/M11 A3014 RMK A01 T01061105  RH  022%=      5-min Rain = 0
KMC5 242339Z 05011KT 11/M11 A3014 RMK A01 T01061106  RH  021%=      5-min Rain = 0
KMC5 242340Z 05011KT 11/M11 A3015 RMK A01 T01061106  RH  021%=      5-min Rain = 0
KMC5 242341Z 05010KT 11/M10 A3015 RMK A01 T01051104  RH  022%=      5-min Rain = 0
KMC5 242342Z 04011KT 11/M10 A3015 RMK A01 T01051104  RH  022%=      5-min Rain = 0
KMC5 242343Z 05011KT 11/M11 A3015 RMK A01 T01051105  RH  022%=      5-min Rain = 0
KMC5 242344Z 04013KT 10/M10 A3014 RMK A01 T01041101  RH  022%=      5-min Rain = 0
KMC5 242345Z 05012KT 10/M10 A3014 RMK A01 T01041101  RH  023%=      5-min Rain = 0
KMC5 242346Z 06011KT 10/M10 A3015 RMK A01 T01041099  RH  023%=      5-min Rain = 0
KMC5 242347Z 06010KT 10/M10 A3015 RMK A01 T01031103  RH  022%=      5-min Rain = 0
KMC5 242348Z 06010KT 10/M11 A3015 RMK A01 T01031105  RH  022%=      5-min Rain = 0
KMC5 242349Z 06011KT 10/M11 A3015 RMK A01 T01021106  RH  022%=      5-min Rain = 0
KMC5 242350Z 06010KT 10/M11 A3015 RMK A01 T01021105  RH  022%=      5-min Rain = 0
KMC5 242351Z 06010KT 10/M10 A3015 RMK A01 T01021103  RH  023%=      5-min Rain = 0
KMC5 242352Z 06009KT 10/M10 A3015 RMK A01 T01011102  RH  023%=      5-min Rain = 0
KMC5 242353Z 06010KT 10/M10 A3015 RMK A01 T01011101  RH  023%=      5-min Rain = 0
KMC5 242354Z 06010KT 10/M10 A3015 RMK A01 T01001103  RH  023%=      5-min Rain = 0
KMC5 242355Z 06010KT 10/M10 A3015 RMK A01 T01001104  RH  023%=      5-min Rain = 0
KMC5 242356Z 06010KT 10/M10 A3015 RMK A01 T00991103  RH  023%=      5-min Rain = 0
KMC5 242357Z 06011KT 10/M10 A3015 RMK A01 T00991104  RH  023%=      5-min Rain = 0
KMC5 242358Z 06010KT 10/M10 A3015 RMK A01 T00991104  RH  023%=      5-min Rain = 0
KMC5 242359Z 06010KT 10/M10 A3015 RMK A01 T00991103  RH  023%=      5-min Rain = 0
KMC5 250000Z 06010KT 10/M11 A3015 RMK A01 T00981105  RH  023%=      5-min Rain = 0
KMC5 250001Z 06010KT 10/M11 A3015 RMK A01 T00981105  RH  023%=      5-min Rain = 0
KMC5 250002Z 05010KT 10/M10 A3015 RMK A01 T00971103  RH  023%=      5-min Rain = 0
KMC5 250003Z 06009KT 10/M10 A3015 RMK A01 T00971102  RH  023%=      5-min Rain = 0
KMC5 250004Z 05009KT 10/M10 A3015 RMK A01 T00961100  RH  024%=      5-min Rain = 0
KMC5 250005Z 06009KT 10/M10 A3015 RMK A01 T00951101  RH  024%=      5-min Rain = 0
KMC5 250006Z 06008KT 10/M10 A3015 RMK A01 T00951099  RH  024%=      5-min Rain = 0
KMC5 250007Z 06008KT 09/M10 A3015 RMK A01 T00941097  RH  025%=      5-min Rain = 0
KMC5 250008Z 06009KT 09/M10 A3015 RMK A01 T00921096  RH  025%=      5-min Rain = 0
KMC5 250009Z 06009KT 09/M10 A3015 RMK A01 T00911097  RH  025%=      5-min Rain = 0
KMC5 250010Z 06010KT 09/M10 A3015 RMK A01 T00911099  RH  025%=      5-min Rain = 0
KMC5 250011Z 06010KT 09/M10 A3015 RMK A01 T00911099  RH  025%=      5-min Rain = 0
KMC5 250012Z 06010KT 09/M10 A3015 RMK A01 T00901099  RH  025%=      5-min Rain = 0
KMC5 250013Z 06010KT 09/M10 A3015 RMK A01 T00901098  RH  025%=      5-min Rain = 0
KMC5 250014Z 05010KT 09/M10 A3015 RMK A01 T00891098  RH  026%=      5-min Rain = 0
KMC5 250015Z 06009KT 09/M10 A3015 RMK A01 T00891098  RH  026%=      5-min Rain = 0
KMC5 250016Z 06009KT 09/M10 A3015 RMK A01 T00871096  RH  026%=      5-min Rain = 0
KMC5 250017Z 06009KT 09/M10 A3015 RMK A01 T00871096  RH  026%=      5-min Rain = 0
KMC5 250018Z 06009KT 09/M10 A3015 RMK A01 T00861096  RH  027%=      5-min Rain = 0
KMC5 250019Z 06008KT 09/M10 A3015 RMK A01 T00851095  RH  027%=      5-min Rain = 0
KMC5 250020Z 06009KT 08/M09 A3016 RMK A01 T00841094  RH  027%=      5-min Rain = 0
KMC5 250021Z 06009KT 08/M10 A3016 RMK A01 T00831095  RH  027%=      5-min Rain = 0
KMC5 250022Z 06008KT 08/M10 A3016 RMK A01 T00821096  RH  027%=      5-min Rain = 0
KMC5 250023Z 06007KT 08/M10 A3016 RMK A01 T00811095  RH  028%=      5-min Rain = 0
KMC5 250024Z 05007KT 08/M10 A3016 RMK A01 T00791096  RH  028%=      5-min Rain = 0
KMC5 250025Z 05008KT 08/M10 A3016 RMK A01 T00781095  RH  028%=      5-min Rain = 0
KMC5 250026Z 05007KT 08/M10 A3016 RMK A01 T00761095  RH  028%=      5-min Rain = 0
KMC5 250027Z 05007KT 08/M09 A3016 RMK A01 T00761094  RH  029%=      5-min Rain = 0
KMC5 250028Z 05007KT 08/M09 A3016 RMK A01 T00751093  RH  029%=      5-min Rain = 0
KMC5 250029Z 05007KT 08/M09 A3016 RMK A01 T00751091  RH  030%=      5-min Rain = 0
KMC5 250030Z 05007KT 07/M09 A3016 RMK A01 T00741090  RH  030%=      5-min Rain = 0
KMC5 250031Z 05007KT 07/M09 A3016 RMK A01 T00721090  RH  030%=      5-min Rain = 0
KMC5 250032Z 05007KT 07/M09 A3017 RMK A01 T00711091  RH  031%=      5-min Rain = 0
KMC5 250033Z 05007KT 07/M09 A3017 RMK A01 T00691090  RH  031%=      5-min Rain = 0
KMC5 250034Z 05006KT 07/M09 A3017 RMK A01 T00681090  RH  031%=      5-min Rain = 0
KMC5 250035Z 04006KT 07/M09 A3017 RMK A01 T00671089  RH  032%=      5-min Rain = 0
KMC5 250036Z 04006KT 07/M09 A3017 RMK A01 T00661089  RH  032%=      5-min Rain = 0
KMC5 250037Z 04006KT 07/M09 A3017 RMK A01 T00661087  RH  033%=      5-min Rain = 0
KMC5 250038Z 04007KT 07/M09 A3017 RMK A01 T00661086  RH  033%=      5-min Rain = 0
KMC5 250039Z 04007KT 07/M09 A3017 RMK A01 T00651086  RH  033%=      5-min Rain = 0
KMC5 250040Z 04007KT 06/M09 A3017 RMK A01 T00641087  RH  033%=      5-min Rain = 0
KMC5 250041Z 04007KT 06/M09 A3017 RMK A01 T00631087  RH  033%=      5-min Rain = 0
KMC5 250042Z 04007KT 06/M09 A3017 RMK A01 T00631088  RH  033%=      5-min Rain = 0
KMC5 250043Z 04007KT 06/M09 A3017 RMK A01 T00631088  RH  033%=      5-min Rain = 0
KMC5 250044Z 04006KT 06/M09 A3017 RMK A01 T00621088  RH  033%=      5-min Rain = 0
KMC5 250045Z 03007KT 06/M09 A3017 RMK A01 T00611088  RH  034%=      5-min Rain = 0
KMC5 250046Z 03007KT 06/M09 A3017 RMK A01 T00591088  RH  034%=      5-min Rain = 0
KMC5 250047Z 04007KT 06/M09 A3018 RMK A01 T00591088  RH  034%=      5-min Rain = 0
KMC5 250048Z 03008KT 06/M09 A3018 RMK A01 T00581087  RH  034%=      5-min Rain = 0
KMC5 250049Z 03008KT 06/M09 A3018 RMK A01 T00571086  RH  035%=      5-min Rain = 0
KMC5 250050Z 03008KT 06/M09 A3018 RMK A01 T00571085  RH  035%=      5-min Rain = 0
KMC5 250051Z 03008KT 06/M09 A3018 RMK A01 T00551085  RH  036%=      5-min Rain = 0
KMC5 250052Z 03008KT 05/M09 A3018 RMK A01 T00541085  RH  036%=      5-min Rain = 0
KMC5 250053Z 03009KT 05/M09 A3018 RMK A01 T00541086  RH  036%=      5-min Rain = 0
KMC5 250054Z 03008KT 06/M09 A3018 RMK A01 T00551086  RH  035%=      5-min Rain = 0
KMC5 250055Z 03008KT 06/M09 A3018 RMK A01 T00561087  RH  035%=      5-min Rain = 0
KMC5 250056Z 03008KT 06/M09 A3018 RMK A01 T00561087  RH  035%=      5-min Rain = 0
KMC5 250057Z 03008KT 06/M09 A3018 RMK A01 T00551086  RH  035%=      5-min Rain = 0
KMC5 250058Z 03008KT 06/M09 A3018 RMK A01 T00551086  RH  036%=      5-min Rain = 0
KMC5 250059Z 03009KT 05/M09 A3018 RMK A01 T00541086  RH  036%=      5-min Rain = 0
KMC5 250100Z 03009KT 05/M09 A3018 RMK A01 T00531086  RH  036%=      5-min Rain = 0
KMC5 250101Z 03009KT 05/M09 A3019 RMK A01 T00531086  RH  036%=      5-min Rain = 0
KMC5 250102Z 03009KT 05/M09 A3019 RMK A01 T00531086  RH  036%=      5-min Rain = 0
KMC5 250103Z 03009KT 05/M09 A3019 RMK A01 T00531087  RH  036%=      5-min Rain = 0
KMC5 250104Z 04009KT 05/M09 A3019 RMK A01 T00531086  RH  036%=      5-min Rain = 0
KMC5 250105Z 04008KT 05/M09 A3019 RMK A01 T00541087  RH  036%=      5-min Rain = 0
KMC5 250106Z 04008KT 05/M09 A3019 RMK A01 T00541086  RH  036%=      5-min Rain = 0
KMC5 250107Z 03007KT 05/M09 A3019 RMK A01 T00531085  RH  036%=      5-min Rain = 0
KMC5 250108Z 03008KT 05/M09 A3019 RMK A01 T00511085  RH  037%=      5-min Rain = 0
KMC5 250109Z 04008KT 05/M09 A3019 RMK A01 T00501086  RH  037%=      5-min Rain = 0
KMC5 250110Z 04008KT 05/M09 A3019 RMK A01 T00501087  RH  036%=      5-min Rain = 0
KMC5 250111Z 04008KT 05/M09 A3019 RMK A01 T00501087  RH  036%=      5-min Rain = 0
KMC5 250112Z 04008KT 05/M09 A3019 RMK A01 T00511087  RH  036%=      5-min Rain = 0
KMC5 250113Z 04008KT 05/M09 A3019 RMK A01 T00511087  RH  036%=      5-min Rain = 0
KMC5 250114Z 03008KT 05/M09 A3019 RMK A01 T00511087  RH  036%=      5-min Rain = 0
KMC5 250115Z 03008KT 05/M09 A3019 RMK A01 T00491087  RH  036%=      5-min Rain = 0
KMC5 250116Z 03008KT 05/M09 A3019 RMK A01 T00491088  RH  037%=      5-min Rain = 0
KMC5 250117Z 03008KT 05/M09 A3019 RMK A01 T00491086  RH  037%=      5-min Rain = 0
KMC5 250118Z 03009KT 05/M09 A3019 RMK A01 T00481086  RH  037%=      5-min Rain = 0
KMC5 250119Z 03008KT 05/M09 A3019 RMK A01 T00491087  RH  037%=      5-min Rain = 0
KMC5 250120Z 03009KT 05/M09 A3019 RMK A01 T00491086  RH  037%=      5-min Rain = 0
KMC5 250121Z 03008KT 05/M09 A3019 RMK A01 T00491086  RH  037%=      5-min Rain = 0
KMC5 250122Z 03008KT 05/M09 A3019 RMK A01 T00501087  RH  036%=      5-min Rain = 0
KMC5 250123Z 03008KT 05/M09 A3019 RMK A01 T00501087  RH  036%=      5-min Rain = 0
KMC5 250124Z 03008KT 05/M09 A3019 RMK A01 T00511087  RH  036%=      5-min Rain = 0
KMC5 250125Z 03008KT 05/M09 A3019 RMK A01 T00511088  RH  036%=      5-min Rain = 0
KMC5 250126Z 03008KT 05/M09 A3019 RMK A01 T00511088  RH  036%=      5-min Rain = 0
KMC5 250127Z 03008KT 05/M09 A302 RMK A01 T00511088  RH  036%=      5-min Rain = 0
KMC5 250128Z 03008KT 05/M09 A302 RMK A01 T00501088  RH  036%=      5-min Rain = 0
KMC5 250129Z 03008KT 05/M09 A302 RMK A01 T00501088  RH  036%=      5-min Rain = 0
KMC5 250130Z 03008KT 05/M09 A302 RMK A01 T00491087  RH  037%=      5-min Rain = 0
KMC5 250131Z 02008KT 05/M09 A302 RMK A01 T00481088  RH  037%=      5-min Rain = 0
KMC5 250132Z 02008KT 05/M09 A302 RMK A01 T00481087  RH  037%=      5-min Rain = 0
KMC5 250133Z 03008KT 05/M09 A302 RMK A01 T00471088  RH  037%=      5-min Rain = 0
KMC5 250134Z 03009KT 05/M09 A302 RMK A01 T00471088  RH  037%=      5-min Rain = 0
KMC5 250135Z 03008KT 05/M09 A302 RMK A01 T00471089  RH  037%=      5-min Rain = 0
KMC5 250136Z 03008KT 05/M09 A302 RMK A01 T00481088  RH  037%=      5-min Rain = 0
KMC5 250137Z 03008KT 05/M09 A302 RMK A01 T00481088  RH  037%=      5-min Rain = 0
KMC5 250138Z 03008KT 05/M09 A302 RMK A01 T00461088  RH  037%=      5-min Rain = 0
KMC5 250139Z 03008KT 05/M09 A302 RMK A01 T00451087  RH  037%=      5-min Rain = 0
KMC5 250140Z 03008KT 05/M09 A302 RMK A01 T00451087  RH  038%=      5-min Rain = 0
KMC5 250141Z 03008KT 05/M09 A302 RMK A01 T00451087  RH  038%=      5-min Rain = 0
KMC5 250142Z 02008KT 05/M09 A302 RMK A01 T00451087  RH  038%=      5-min Rain = 0
KMC5 250143Z 02008KT 05/M09 A302 RMK A01 T00451087  RH  038%=      5-min Rain = 0
KMC5 250144Z 02008KT 05/M09 A302 RMK A01 T00451087  RH  038%=      5-min Rain = 0
KMC5 250145Z 02008KT 04/M09 A3021 RMK A01 T00441088  RH  038%=      5-min Rain = 0
KMC5 250146Z 02008KT 04/M09 A3021 RMK A01 T00441088  RH  038%=      5-min Rain = 0
KMC5 250147Z 02008KT 04/M09 A3021 RMK A01 T00431088  RH  038%=      5-min Rain = 0
KMC5 250148Z 02008KT 04/M09 A3021 RMK A01 T00431088  RH  038%=      5-min Rain = 0
KMC5 250149Z 02008KT 04/M09 A3021 RMK A01 T00421088  RH  038%=      5-min Rain = 0
KMC5 250150Z 02008KT 04/M09 A3021 RMK A01 T00411088  RH  038%=      5-min Rain = 0
KMC5 250151Z 02008KT 04/M09 A3021 RMK A01 T00401088  RH  039%=      5-min Rain = 0
KMC5 250152Z 02008KT 04/M09 A3021 RMK A01 T00401088  RH  039%=      5-min Rain = 0
KMC5 250153Z 02009KT 04/M09 A3021 RMK A01 T00401089  RH  038%=      5-min Rain = 0
KMC5 250154Z 03009KT 04/M09 A3021 RMK A01 T00411089  RH  038%=      5-min Rain = 0
KMC5 250155Z 03008KT 04/M09 A3021 RMK A01 T00431089  RH  038%=      5-min Rain = 0
KMC5 250156Z 03008KT 04/M09 A3021 RMK A01 T00441089  RH  038%=      5-min Rain = 0
KMC5 250157Z 02008KT 04/M09 A3021 RMK A01 T00441089  RH  038%=      5-min Rain = 0
KMC5 250158Z 02008KT 04/M09 A3021 RMK A01 T00431088  RH  038%=      5-min Rain = 0
KMC5 250159Z 03008KT 04/M09 A3021 RMK A01 T00421088  RH  038%=      5-min Rain = 0
KMC5 250200Z 02008KT 04/M09 A3022 RMK A01 T00401089  RH  039%=      5-min Rain = 0
KMC5 250201Z 02008KT 04/M09 A3022 RMK A01 T00401088  RH  039%=      5-min Rain = 0
KMC5 250202Z 02008KT 04/M09 A3022 RMK A01 T00391088  RH  039%=      5-min Rain = 0
KMC5 250203Z 02008KT 04/M09 A3022 RMK A01 T00381089  RH  039%=      5-min Rain = 0
KMC5 250204Z 03008KT 04/M09 A3022 RMK A01 T00381089  RH  039%=      5-min Rain = 0
KMC5 250205Z 03008KT 04/M09 A3021 RMK A01 T00381089  RH  039%=      5-min Rain = 0
KMC5 250206Z 03008KT 04/M09 A3021 RMK A01 T00381090  RH  039%=      5-min Rain = 0
KMC5 250207Z 03009KT 04/M09 A3021 RMK A01 T00381090  RH  039%=      5-min Rain = 0
KMC5 250208Z 03009KT 04/M09 A3021 RMK A01 T00381089  RH  039%=      5-min Rain = 0
KMC5 250209Z 03009KT 04/M09 A3021 RMK A01 T00381089  RH  039%=      5-min Rain = 0
KMC5 250210Z 03009KT 04/M09 A3021 RMK A01 T00381089  RH  039%=      5-min Rain = 0
KMC5 250211Z 03009KT 04/M09 A3021 RMK A01 T00381088  RH  039%=      5-min Rain = 0
KMC5 250212Z 03009KT 04/M09 A3022 RMK A01 T00381088  RH  039%=      5-min Rain = 0
KMC5 250213Z 03009KT 04/M09 A3022 RMK A01 T00381088  RH  039%=      5-min Rain = 0
KMC5 250214Z 03009KT 04/M09 A3022 RMK A01 T00381087  RH  039%=      5-min Rain = 0
KMC5 250215Z 03009KT 04/M09 A3022 RMK A01 T00381087  RH  040%=      5-min Rain = 0
KMC5 250216Z 03009KT 04/M09 A3022 RMK A01 T00381088  RH  039%=      5-min Rain = 0
KMC5 250217Z 03009KT 04/M09 A3022 RMK A01 T00381088  RH  039%=      5-min Rain = 0
KMC5 250218Z 03009KT 04/M09 A3022 RMK A01 T00381088  RH  039%=      5-min Rain = 0
KMC5 250219Z 04009KT 04/M09 A3022 RMK A01 T00381087  RH  040%=      5-min Rain = 0
KMC5 250220Z 04009KT 04/M09 A3022 RMK A01 T00381087  RH  040%=      5-min Rain = 0
KMC5 250221Z 04009KT 04/M09 A3022 RMK A01 T00371087  RH  040%=      5-min Rain = 0
KMC5 250222Z 04009KT 04/M09 A3022 RMK A01 T00371088  RH  040%=      5-min Rain = 0
KMC5 250223Z 04009KT 04/M09 A3022 RMK A01 T00371087  RH  040%=      5-min Rain = 0
KMC5 250224Z 04009KT 04/M09 A3022 RMK A01 T00371087  RH  040%=      5-min Rain = 0
KMC5 250225Z 04009KT 04/M09 A3022 RMK A01 T00371088  RH  040%=      5-min Rain = 0
KMC5 250226Z 04009KT 04/M09 A3022 RMK A01 T00371087  RH  040%=      5-min Rain = 0
KMC5 250227Z 04008KT 04/M09 A3022 RMK A01 T00361087  RH  040%=      5-min Rain = 0
KMC5 250228Z 04008KT 03/M09 A3022 RMK A01 T00341086  RH  041%=      5-min Rain = 0
KMC5 250229Z 04008KT 03/M09 A3022 RMK A01 T00321087  RH  041%=      5-min Rain = 0
KMC5 250230Z 05008KT 03/M09 A3021 RMK A01 T00311087  RH  042%=      5-min Rain = 0
KMC5 250231Z 05008KT 03/M09 A3021 RMK A01 T00301087  RH  042%=      5-min Rain = 0
KMC5 250232Z 05008KT 03/M09 A3021 RMK A01 T00301088  RH  042%=      5-min Rain = 0
KMC5 250233Z 05008KT 03/M09 A3021 RMK A01 T00311088  RH  041%=      5-min Rain = 0
KMC5 250234Z 05007KT 03/M09 A3021 RMK A01 T00311088  RH  041%=      5-min Rain = 0
KMC5 250235Z 05008KT 03/M09 A3022 RMK A01 T00301088  RH  041%=      5-min Rain = 0
KMC5 250236Z 05008KT 03/M09 A3022 RMK A01 T00301088  RH  042%=      5-min Rain = 0
KMC5 250237Z 05008KT 03/M09 A3022 RMK A01 T00301088  RH  042%=      5-min Rain = 0
KMC5 250238Z 05008KT 03/M09 A3022 RMK A01 T00291088  RH  042%=      5-min Rain = 0
KMC5 250239Z 05007KT 03/M09 A3022 RMK A01 T00291088  RH  042%=      5-min Rain = 0
KMC5 250240Z 05007KT 03/M09 A3022 RMK A01 T00281087  RH  042%=      5-min Rain = 0
KMC5 250241Z 05007KT 03/M09 A3022 RMK A01 T00281087  RH  043%=      5-min Rain = 0
KMC5 250242Z 05007KT 03/M09 A3022 RMK A01 T00271087  RH  043%=      5-min Rain = 0
KMC5 250243Z 05007KT 03/M09 A3022 RMK A01 T00271087  RH  043%=      5-min Rain = 0
KMC5 250244Z 05007KT 03/M09 A3022 RMK A01 T00261087  RH  043%=      5-min Rain = 0
KMC5 250245Z 05007KT 03/M09 A3022 RMK A01 T00261087  RH  043%=      5-min Rain = 0
KMC5 250246Z 05008KT 03/M09 A3022 RMK A01 T00261087  RH  043%=      5-min Rain = 0
KMC5 250247Z 05008KT 03/M09 A3022 RMK A01 T00261086  RH  043%=      5-min Rain = 0
KMC5 250248Z 05008KT 03/M09 A3022 RMK A01 T00251086  RH  044%=      5-min Rain = 0
KMC5 250249Z 05008KT 03/M09 A3022 RMK A01 T00251086  RH  044%=      5-min Rain = 0
KMC5 250250Z 05008KT 03/M09 A3022 RMK A01 T00251085  RH  044%=      5-min Rain = 0
KMC5 250251Z 04008KT 03/M09 A3022 RMK A01 T00261085  RH  044%=      5-min Rain = 0
KMC5 250252Z 05008KT 03/M08 A3022 RMK A01 T00261084  RH  044%=      5-min Rain = 0
KMC5 250253Z 05009KT 03/M08 A3022 RMK A01 T00261084  RH  044%=      5-min Rain = 0
KMC5 250254Z 05008KT 03/M08 A3022 RMK A01 T00261083  RH  045%=      5-min Rain = 0
KMC5 250255Z 05008KT 03/M08 A3022 RMK A01 T00251083  RH  045%=      5-min Rain = 0
KMC5 250256Z 05008KT 02/M08 A3022 RMK A01 T00241083  RH  045%=      5-min Rain = 0
KMC5 250257Z 05008KT 02/M08 A3022 RMK A01 T00231083  RH  046%=      5-min Rain = 0
KMC5 250258Z 05009KT 02/M08 A3021 RMK A01 T00221083  RH  046%=      5-min Rain = 0
KMC5 250259Z 05009KT 02/M08 A3021 RMK A01 T00221083  RH  046%=      5-min Rain = 0
KMC5 250300Z 06008KT 02/M08 A3021 RMK A01 T00221083  RH  046%=      5-min Rain = 0
KMC5 250301Z 06008KT 02/M08 A3021 RMK A01 T00221082  RH  046%=      5-min Rain = 0
KMC5 250302Z 06007KT 02/M08 A3021 RMK A01 T00201082  RH  047%=      5-min Rain = 0
KMC5 250303Z 06007KT 02/M08 A3021 RMK A01 T00181081  RH  048%=      5-min Rain = 0
KMC5 250304Z 06007KT 02/M08 A3021 RMK A01 T00161081  RH  048%=      5-min Rain = 0
KMC5 250305Z 06007KT 02/M08 A3021 RMK A01 T00161081  RH  048%=      5-min Rain = 0
KMC5 250306Z 06007KT 02/M08 A3021 RMK A01 T00161081  RH  048%=      5-min Rain = 0
KMC5 250307Z 05007KT 02/M08 A3021 RMK A01 T00161081  RH  049%=      5-min Rain = 0
KMC5 250308Z 05007KT 02/M08 A3021 RMK A01 T00161081  RH  049%=      5-min Rain = 0
KMC5 250309Z 05007KT 02/M08 A3021 RMK A01 T00161081  RH  049%=      5-min Rain = 0
KMC5 250310Z 05007KT 02/M08 A3021 RMK A01 T00161080  RH  049%=      5-min Rain = 0
KMC5 250311Z 05007KT 02/M08 A3021 RMK A01 T00161079  RH  049%=      5-min Rain = 0
KMC5 250312Z 05007KT 02/M08 A3021 RMK A01 T00161079  RH  049%=      5-min Rain = 0
KMC5 250313Z 06007KT 02/M08 A3022 RMK A01 T00161078  RH  050%=      5-min Rain = 0
KMC5 250314Z 05007KT 02/M08 A3022 RMK A01 T00151078  RH  050%=      5-min Rain = 0
KMC5 250315Z 05008KT 02/M08 A3022 RMK A01 T00151078  RH  050%=      5-min Rain = 0
KMC5 250316Z 05007KT 02/M08 A3022 RMK A01 T00151078  RH  050%=      5-min Rain = 0
KMC5 250317Z 05008KT 02/M08 A3022 RMK A01 T00151078  RH  050%=      5-min Rain = 0
KMC5 250318Z 05008KT 02/M08 A3022 RMK A01 T00151078  RH  050%=      5-min Rain = 0
KMC5 250319Z 05008KT 02/M08 A3022 RMK A01 T00151077  RH  050%=      5-min Rain = 0
KMC5 250320Z 05008KT 02/M08 A3022 RMK A01 T00161077  RH  050%=      5-min Rain = 0
KMC5 250321Z 05008KT 02/M08 A3022 RMK A01 T00161077  RH  050%=      5-min Rain = 0
KMC5 250322Z 05008KT 02/M08 A3022 RMK A01 T00151077  RH  050%=      5-min Rain = 0
KMC5 250323Z 05008KT 02/M08 A3022 RMK A01 T00161076  RH  050%=      5-min Rain = 0
KMC5 250324Z 05008KT 02/M08 A3022 RMK A01 T00151076  RH  050%=      5-min Rain = 0
KMC5 250325Z 05008KT 02/M08 A3022 RMK A01 T00161076  RH  051%=      5-min Rain = 0
KMC5 250326Z 05008KT 02/M08 A3022 RMK A01 T00151076  RH  051%=      5-min Rain = 0
KMC5 250327Z 05008KT 02/M08 A3022 RMK A01 T00161076  RH  050%=      5-min Rain = 0
KMC5 250328Z 04008KT 02/M08 A3022 RMK A01 T00161076  RH  050%=      5-min Rain = 0
KMC5 250329Z 04008KT 02/M08 A3022 RMK A01 T00161076  RH  050%=      5-min Rain = 0
KMC5 250330Z 04008KT 02/M08 A3023 RMK A01 T00171076  RH  050%=      5-min Rain = 0
KMC5 250331Z 04008KT 02/M08 A3023 RMK A01 T00171077  RH  050%=      5-min Rain = 0
KMC5 250332Z 04008KT 02/M08 A3023 RMK A01 T00171077  RH  050%=      5-min Rain = 0
KMC5 250333Z 04008KT 02/M08 A3023 RMK A01 T00171077  RH  050%=      5-min Rain = 0
KMC5 250334Z 04008KT 02/M08 A3023 RMK A01 T00171077  RH  050%=      5-min Rain = 0
KMC5 250335Z 04008KT 02/M08 A3023 RMK A01 T00171077  RH  050%=      5-min Rain = 0
KMC5 250336Z 04008KT 02/M08 A3023 RMK A01 T00171077  RH  050%=      5-min Rain = 0
KMC5 250337Z 05008KT 02/M08 A3023 RMK A01 T00171077  RH  049%=      5-min Rain = 0
KMC5 250338Z 04007KT 02/M08 A3023 RMK A01 T00171078  RH  050%=      5-min Rain = 0
KMC5 250339Z 04007KT 02/M08 A3023 RMK A01 T00161078  RH  049%=      5-min Rain = 0
KMC5 250340Z 04008KT 02/M08 A3023 RMK A01 T00171078  RH  049%=      5-min Rain = 0
KMC5 250341Z 04008KT 02/M08 A3023 RMK A01 T00171078  RH  049%=      5-min Rain = 0
KMC5 250342Z 04008KT 02/M08 A3023 RMK A01 T00161079  RH  049%=      5-min Rain = 0
KMC5 250343Z 05008KT 02/M08 A3023 RMK A01 T00151078  RH  050%=      5-min Rain = 0
KMC5 250344Z 05008KT 02/M08 A3023 RMK A01 T00151079  RH  050%=      5-min Rain = 0
KMC5 250345Z 04008KT 02/M08 A3023 RMK A01 T00151078  RH  050%=      5-min Rain = 0
KMC5 250346Z 04008KT 01/M08 A3023 RMK A01 T00141078  RH  050%=      5-min Rain = 0
KMC5 250347Z 04008KT 01/M08 A3023 RMK A01 T00141078  RH  050%=      5-min Rain = 0
KMC5 250348Z 04009KT 01/M08 A3023 RMK A01 T00141078  RH  050%=      5-min Rain = 0
KMC5 250349Z 04009KT 02/M08 A3023 RMK A01 T00151079  RH  050%=      5-min Rain = 0
KMC5 250350Z 04009KT 02/M08 A3023 RMK A01 T00171078  RH  049%=      5-min Rain = 0
KMC5 250351Z 04009KT 02/M08 A3023 RMK A01 T00191078  RH  049%=      5-min Rain = 0
KMC5 250352Z 04009KT 02/M08 A3023 RMK A01 T00201079  RH  048%=      5-min Rain = 0
KMC5 250353Z 04009KT 02/M08 A3024 RMK A01 T00211079  RH  047%=      5-min Rain = 0
KMC5 250354Z 04009KT 02/M08 A3024 RMK A01 T00211079  RH  047%=      5-min Rain = 0
KMC5 250355Z 04008KT 02/M08 A3024 RMK A01 T00211079  RH  048%=      5-min Rain = 0
KMC5 250356Z 04008KT 02/M08 A3024 RMK A01 T00201079  RH  048%=      5-min Rain = 0
KMC5 250357Z 04008KT 02/M08 A3024 RMK A01 T00201079  RH  048%=      5-min Rain = 0
KMC5 250358Z 04009KT 02/M08 A3024 RMK A01 T00181080  RH  048%=      5-min Rain = 0
KMC5 250359Z 04009KT 02/M08 A3024 RMK A01 T00181080  RH  048%=      5-min Rain = 0
KMC5 250400Z 04009KT 02/M08 A3024 RMK A01 T00181081  RH  048%=      5-min Rain = 0
KMC5 250401Z 04009KT 02/M08 A3024 RMK A01 T00181081  RH  048%=      5-min Rain = 0
KMC5 250402Z 04009KT 02/M08 A3024 RMK A01 T00181081  RH  048%=      5-min Rain = 0
KMC5 250403Z 04008KT 02/M08 A3024 RMK A01 T00181081  RH  048%=      5-min Rain = 0
KMC5 250404Z 04008KT 02/M08 A3024 RMK A01 T00181081  RH  048%=      5-min Rain = 0
KMC5 250405Z 04008KT 02/M08 A3024 RMK A01 T00171081  RH  048%=      5-min Rain = 0
KMC5 250406Z 04008KT 02/M08 A3024 RMK A01 T00161080  RH  049%=      5-min Rain = 0
KMC5 250407Z 04008KT 02/M08 A3024 RMK A01 T00151080  RH  049%=      5-min Rain = 0
KMC5 250408Z 04008KT 01/M08 A3024 RMK A01 T00141080  RH  050%=      5-min Rain = 0
KMC5 250409Z 04008KT 01/M08 A3024 RMK A01 T00131081  RH  050%=      5-min Rain = 0
KMC5 250410Z 04008KT 01/M08 A3024 RMK A01 T00131081  RH  049%=      5-min Rain = 0
KMC5 250411Z 04008KT 01/M08 A3024 RMK A01 T00141081  RH  049%=      5-min Rain = 0
KMC5 250412Z 04008KT 02/M08 A3024 RMK A01 T00151080  RH  049%=      5-min Rain = 0
KMC5 250413Z 04008KT 02/M08 A3024 RMK A01 T00151080  RH  049%=      5-min Rain = 0
KMC5 250414Z 05008KT 01/M08 A3024 RMK A01 T00141080  RH  050%=      5-min Rain = 0
KMC5 250415Z 04008KT 01/M08 A3024 RMK A01 T00131080  RH  050%=      5-min Rain = 0
KMC5 250416Z 04008KT 01/M08 A3024 RMK A01 T00131079  RH  050%=      5-min Rain = 0
KMC5 250417Z 04008KT 01/M08 A3024 RMK A01 T00121080  RH  050%=      5-min Rain = 0
KMC5 250418Z 04008KT 01/M08 A3024 RMK A01 T00111080  RH  051%=      5-min Rain = 0
KMC5 250419Z 04009KT 01/M08 A3024 RMK A01 T00111080  RH  051%=      5-min Rain = 0
KMC5 250420Z 04009KT 01/M08 A3024 RMK A01 T00101080  RH  051%=      5-min Rain = 0
KMC5 250421Z 04009KT 01/M08 A3024 RMK A01 T00111079  RH  051%=      5-min Rain = 0
KMC5 250422Z 04009KT 01/M08 A3024 RMK A01 T00121079  RH  051%=      5-min Rain = 0
KMC5 250423Z 04009KT 01/M08 A3024 RMK A01 T00121079  RH  051%=      5-min Rain = 0
KMC5 250424Z 04009KT 01/M08 A3024 RMK A01 T00131079  RH  050%=      5-min Rain = 0
KMC5 250425Z 04008KT 01/M08 A3024 RMK A01 T00131080  RH  050%=      5-min Rain = 0
KMC5 250426Z 04008KT 01/M08 A3024 RMK A01 T00121080  RH  050%=      5-min Rain = 0
KMC5 250427Z 04008KT 01/M08 A3024 RMK A01 T00111080  RH  051%=      5-min Rain = 0
KMC5 250428Z 04009KT 01/M08 A3024 RMK A01 T00111080  RH  051%=      5-min Rain = 0
KMC5 250429Z 04009KT 01/M08 A3024 RMK A01 T00101080  RH  051%=      5-min Rain = 0
KMC5 250430Z 04009KT 01/M08 A3024 RMK A01 T00101080  RH  051%=      5-min Rain = 0
KMC5 250431Z 04010KT 01/M08 A3024 RMK A01 T00101080  RH  051%=      5-min Rain = 0
KMC5 250432Z 04010KT 01/M08 A3024 RMK A01 T00111079  RH  051%=      5-min Rain = 0
KMC5 250433Z 04009KT 01/M08 A3024 RMK A01 T00131079  RH  051%=      5-min Rain = 0
KMC5 250434Z 04009KT 01/M08 A3024 RMK A01 T00131079  RH  050%=      5-min Rain = 0
KMC5 250435Z 04010KT 01/M08 A3024 RMK A01 T00131080  RH  050%=      5-min Rain = 0
KMC5 250436Z 04010KT 01/M08 A3024 RMK A01 T00131080  RH  050%=      5-min Rain = 0
KMC5 250437Z 04010KT 01/M08 A3024 RMK A01 T00131080  RH  050%=      5-min Rain = 0
KMC5 250438Z 04010KT 01/M08 A3024 RMK A01 T00131080  RH  050%=      5-min Rain = 0
KMC5 250439Z 04010KT 01/M08 A3024 RMK A01 T00141080  RH  050%=      5-min Rain = 0
KMC5 250440Z 04010KT 01/M08 A3024 RMK A01 T00141080  RH  049%=      5-min Rain = 0
KMC5 250441Z 04010KT 01/M08 A3024 RMK A01 T00141080  RH  050%=      5-min Rain = 0
KMC5 250442Z 04010KT 01/M08 A3024 RMK A01 T00131080  RH  050%=      5-min Rain = 0
KMC5 250443Z 04010KT 01/M08 A3024 RMK A01 T00131080  RH  050%=      5-min Rain = 0
KMC5 250444Z 04010KT 01/M08 A3024 RMK A01 T00131080  RH  050%=      5-min Rain = 0
KMC5 250445Z 04010KT 01/M08 A3024 RMK A01 T00131079  RH  050%=      5-min Rain = 0
KMC5 250446Z 04010KT 01/M08 A3024 RMK A01 T00131079  RH  050%=      5-min Rain = 0
KMC5 250447Z 04010KT 01/M08 A3024 RMK A01 T00121080  RH  051%=      5-min Rain = 0
KMC5 250448Z 04010KT 01/M08 A3024 RMK A01 T00121079  RH  051%=      5-min Rain = 0
KMC5 250449Z 04010KT 01/M08 A3024 RMK A01 T00121079  RH  051%=      5-min Rain = 0
KMC5 250450Z 04010KT 01/M08 A3024 RMK A01 T00121079  RH  051%=      5-min Rain = 0
KMC5 250451Z 04010KT 01/M08 A3024 RMK A01 T00111079  RH  051%=      5-min Rain = 0
KMC5 250452Z 04010KT 01/M08 A3024 RMK A01 T00101079  RH  051%=      5-min Rain = 0
KMC5 250453Z 04010KT 01/M08 A3024 RMK A01 T00101079  RH  051%=      5-min Rain = 0
KMC5 250454Z 04010KT 01/M08 A3024 RMK A01 T00101079  RH  051%=      5-min Rain = 0
KMC5 250455Z 04010KT 01/M08 A3024 RMK A01 T00101079  RH  052%=      5-min Rain = 0
KMC5 250456Z 05009KT 01/M08 A3024 RMK A01 T00091079  RH  052%=      5-min Rain = 0
KMC5 250457Z 05009KT 01/M08 A3024 RMK A01 T00091078  RH  052%=      5-min Rain = 0
KMC5 250458Z 05009KT 01/M08 A3024 RMK A01 T00081079  RH  052%=      5-min Rain = 0
KMC5 250459Z 05008KT 01/M08 A3024 RMK A01 T00081079  RH  052%=      5-min Rain = 0
KMC5 250500Z 04008KT 01/M08 A3024 RMK A01 T00081079  RH  052%=      5-min Rain = 0
KMC5 250501Z 04009KT 01/M08 A3024 RMK A01 T00071079  RH  052%=      5-min Rain = 0
KMC5 250502Z 04009KT 01/M08 A3024 RMK A01 T00071079  RH  052%=      5-min Rain = 0
KMC5 250503Z 04009KT 01/M08 A3024 RMK A01 T00071079  RH  052%=      5-min Rain = 0
KMC5 250504Z 05009KT 01/M08 A3024 RMK A01 T00071079  RH  053%=      5-min Rain = 0
KMC5 250505Z 05009KT 01/M08 A3024 RMK A01 T00061079  RH  053%=      5-min Rain = 0
KMC5 250506Z 04008KT 01/M08 A3024 RMK A01 T00061079  RH  053%=      5-min Rain = 0
KMC5 250507Z 04008KT 01/M08 A3025 RMK A01 T00061079  RH  053%=      5-min Rain = 0
KMC5 250508Z 04008KT 01/M08 A3025 RMK A01 T00051079  RH  053%=      5-min Rain = 0
KMC5 250509Z 04009KT 00/M08 A3025 RMK A01 T00041079  RH  053%=      5-min Rain = 0
KMC5 250510Z 04009KT 00/M08 A3025 RMK A01 T00041079  RH  054%=      5-min Rain = 0
KMC5 250511Z 04009KT 00/M08 A3025 RMK A01 T00041079  RH  054%=      5-min Rain = 0
KMC5 250512Z 04009KT 00/M08 A3024 RMK A01 T00031079  RH  054%=      5-min Rain = 0
KMC5 250513Z 04010KT 00/M08 A3024 RMK A01 T00021079  RH  054%=      5-min Rain = 0
KMC5 250514Z 04010KT 00/M08 A3024 RMK A01 T00021079  RH  054%=      5-min Rain = 0
KMC5 250515Z 04010KT 00/M08 A3024 RMK A01 T00031079  RH  054%=      5-min Rain = 0
KMC5 250516Z 04010KT 00/M08 A3024 RMK A01 T00041078  RH  054%=      5-min Rain = 0
KMC5 250517Z 04010KT 00/M08 A3024 RMK A01 T00041078  RH  054%=      5-min Rain = 0
KMC5 250518Z 04011KT 00/M08 A3024 RMK A01 T00041078  RH  054%=      5-min Rain = 0
KMC5 250519Z 04011KT 00/M08 A3024 RMK A01 T00041078  RH  054%=      5-min Rain = 0
KMC5 250520Z 04011KT 01/M08 A3024 RMK A01 T00051078  RH  054%=      5-min Rain = 0
KMC5 250521Z 04011KT 01/M08 A3024 RMK A01 T00051078  RH  054%=      5-min Rain = 0
KMC5 250522Z 04011KT 01/M08 A3024 RMK A01 T00051078  RH  054%=      5-min Rain = 0
KMC5 250523Z 04011KT 01/M08 A3024 RMK A01 T00051079  RH  054%=      5-min Rain = 0
KMC5 250524Z 04011KT 01/M08 A3024 RMK A01 T00051078  RH  054%=      5-min Rain = 0
KMC5 250525Z 04012KT 00/M08 A3024 RMK A01 T00041078  RH  054%=      5-min Rain = 0
KMC5 250526Z 04011KT 00/M08 A3024 RMK A01 T00041078  RH  054%=      5-min Rain = 0
KMC5 250527Z 04011KT 00/M08 A3024 RMK A01 T00041078  RH  054%=      5-min Rain = 0
KMC5 250528Z 04011KT 00/M08 A3024 RMK A01 T00041078  RH  054%=      5-min Rain = 0
KMC5 250529Z 04011KT 00/M08 A3024 RMK A01 T00041079  RH  054%=      5-min Rain = 0
KMC5 250530Z 04011KT 00/M08 A3024 RMK A01 T00031078  RH  054%=      5-min Rain = 0
KMC5 250531Z 04011KT 00/M08 A3024 RMK A01 T00041079  RH  054%=      5-min Rain = 0
KMC5 250532Z 04010KT 00/M08 A3024 RMK A01 T00031078  RH  054%=      5-min Rain = 0
KMC5 250533Z 04010KT 00/M08 A3024 RMK A01 T00031078  RH  054%=      5-min Rain = 0
KMC5 250534Z 04010KT 00/M08 A3024 RMK A01 T00031078  RH  055%=      5-min Rain = 0
KMC5 250535Z 04010KT 00/M08 A3024 RMK A01 T00021078  RH  055%=      5-min Rain = 0
KMC5 250536Z 04010KT 00/M08 A3024 RMK A01 T00021078  RH  055%=      5-min Rain = 0
KMC5 250537Z 04011KT 00/M08 A3024 RMK A01 T00011078  RH  055%=      5-min Rain = 0
KMC5 250538Z 05011KT 00/M08 A3024 RMK A01 T00011077  RH  056%=      5-min Rain = 0
KMC5 250539Z 04011KT 00/M08 A3024 RMK A01 T00011077  RH  056%=      5-min Rain = 0
KMC5 250540Z 05011KT 00/M08 A3024 RMK A01 T00011077  RH  056%=      5-min Rain = 0
KMC5 250541Z 05011KT 00/M08 A3024 RMK A01 T00011077  RH  056%=      5-min Rain = 0
KMC5 250542Z 05010KT 00/08 A3024 RMK A01 T00000-77  RH  056%=      5-min Rain = 0
KMC5 250543Z 05010KT 00/08 A3024 RMK A01 T00-00-76  RH  057%=      5-min Rain = 0
KMC5 250544Z 05010KT M00/M08 A3024 RMK A01 T10021077  RH  057%=      5-min Rain = 0
KMC5 250545Z 05010KT M00/M08 A3024 RMK A01 T10031077  RH  057%=      5-min Rain = 0
KMC5 250546Z 05010KT M00/M08 A3024 RMK A01 T10031077  RH  058%=      5-min Rain = 0
KMC5 250547Z 05010KT M00/M08 A3024 RMK A01 T10041077  RH  058%=      5-min Rain = 0
KMC5 250548Z 05010KT M01/M08 A3024 RMK A01 T10051077  RH  058%=      5-min Rain = 0
KMC5 250549Z 05010KT M01/M08 A3024 RMK A01 T10061077  RH  058%=      5-min Rain = 0
KMC5 250550Z 05010KT M01/M08 A3024 RMK A01 T10061077  RH  059%=      5-min Rain = 0
KMC5 250551Z 05010KT M01/M08 A3024 RMK A01 T10071077  RH  059%=      5-min Rain = 0
KMC5 250552Z 05010KT M01/M08 A3024 RMK A01 T10071077  RH  059%=      5-min Rain = 0
KMC5 250553Z 05010KT M01/M08 A3024 RMK A01 T10071076  RH  059%=      5-min Rain = 0
KMC5 250554Z 05009KT M01/M08 A3024 RMK A01 T10071076  RH  059%=      5-min Rain = 0
KMC5 250555Z 05009KT M01/M08 A3024 RMK A01 T10081077  RH  059%=      5-min Rain = 0
KMC5 250556Z 05009KT M01/M08 A3023 RMK A01 T10081077  RH  060%=      5-min Rain = 0
KMC5 250557Z 05009KT M01/M08 A3023 RMK A01 T10091077  RH  060%=      5-min Rain = 0
KMC5 250558Z 05009KT M01/M08 A3023 RMK A01 T10091077  RH  060%=      5-min Rain = 0
KMC5 250559Z 05009KT M01/M08 A3023 RMK A01 T10091077  RH  060%=      5-min Rain = 0

Page generated in 0.1529 seconds.